M I D A S
Marine Information and Data Acquisition System
Tripno 1213 of the Zeeleeuw from 2007-02-19 08:25:30 to 2007-02-19 16:47:37
Back to CruiseResearch ActivitiesStationsMapUnderway DataData graphs

EquipmentUnitsComment
TimeDGPSUTC
LatitudeDGPSDM.mWGS84
LongitudeDGPSDM.mWGS84
TemperatureSBE03/SBE38deg celciusITS90
ConductivitySBE21S/mITS90
SalinitySBE21 Practical Salinity Units
ChlorophylAChelsea fluorimeterg/lCalibrated in Aceton
Missing or incorrect values are displayed as -999
Sea surface data collected by the RV Zeeleeuw from 2007-02-19 08:29:15 to 2007-02-19 16:56:02
                                                                                    Next 1000 lines
Time Latitude Longitude Temperature Conductivity Salinity ChlorophylA
2007-02-19 08:29:26 51°13.597 2°56.093 15.256 5.0E-5 0.011654 -2.871232
2007-02-19 08:29:31 51°13.598 2°56.091 15.2255 5.0E-5 0.011653 -2.871232
2007-02-19 08:29:36 51°13.599 2°56.089 15.2381 5.0E-5 0.011653 -2.871232
2007-02-19 08:29:41 51°13.599 2°56.086 15.2923 5.0E-5 0.011652 -2.871232
2007-02-19 08:29:46 51°13.6 2°56.082 15.2932 5.0E-5 0.011652 -2.871232
2007-02-19 08:29:52 51°13.602 2°56.077 15.381 5.0E-5 0.011651 -2.871232
2007-02-19 08:29:57 51°13.603 2°56.072 15.3828 5.0E-5 0.01165 -2.871232
2007-02-19 08:30:02 51°13.604 2°56.068 15.3644 5.0E-5 0.01165 -2.871232
2007-02-19 08:30:08 51°13.606 2°56.062 15.333 5.0E-5 0.01165 -2.871232
2007-02-19 08:30:14 51°13.607 2°56.055 15.3097 5.0E-5 0.011649 -2.871232
2007-02-19 08:30:19 51°13.609 2°56.049 15.2975 5.0E-5 0.011649 -2.871232
2007-02-19 08:30:24 51°13.611 2°56.043 15.323 5.0E-5 0.011648 -2.871232
2007-02-19 08:30:29 51°13.612 2°56.036 15.3328 5.0E-5 0.011647 -2.871232
2007-02-19 08:30:34 51°13.614 2°56.029 15.3417 5.0E-5 0.011647 -2.871232
2007-02-19 08:30:39 51°13.617 2°56.022 15.3345 5.0E-5 0.011647 -2.871232
2007-02-19 08:30:44 51°13.619 2°56.015 15.3467 5.0E-5 0.011646 -2.871232
2007-02-19 08:30:49 51°13.621 2°56.007 15.3543 5.0E-5 0.011645 -2.871232
2007-02-19 08:30:54 51°13.623 2°55.999 15.3579 5.0E-5 0.011645 -2.871232
2007-02-19 08:31:00 51°13.627 2°55.989 15.3553 5.0E-5 0.011644 -2.871232
2007-02-19 08:31:04 51°13.629 2°55.983 15.3752 5.0E-5 0.011643 -2.871232
2007-02-19 08:31:09 51°13.632 2°55.974 15.427 5.0E-5 0.011643 -2.871232
2007-02-19 08:31:14 51°13.635 2°55.966 15.4336 5.0E-5 0.011643 -2.871232
2007-02-19 08:31:19 51°13.638 2°55.958 15.4161 5.0E-5 0.011642 -2.871232
2007-02-19 08:31:24 51°13.641 2°55.95 15.4059 5.0E-5 0.011642 -2.871232
2007-02-19 08:31:29 51°13.644 2°55.942 15.3982 5.0E-5 0.011641 -2.871232
2007-02-19 08:31:34 51°13.648 2°55.934 15.3915 5.0E-5 0.01164 -2.871232
2007-02-19 08:31:39 51°13.652 2°55.925 15.4341 5.0E-5 0.01164 -2.871232
2007-02-19 08:31:44 51°13.655 2°55.917 15.4102 5.0E-5 0.01164 -2.871232
2007-02-19 08:31:49 51°13.659 2°55.909 15.4037 5.0E-5 0.011639 -2.871232
2007-02-19 08:31:54 51°13.663 2°55.901 15.4008 5.0E-5 0.011638 -2.871232
2007-02-19 08:31:59 51°13.667 2°55.893 15.3842 5.0E-5 0.011637 -2.871232
2007-02-19 08:32:04 51°13.671 2°55.884 15.3709 5.0E-5 0.011636 -2.871232
2007-02-19 08:32:09 51°13.675 2°55.876 15.3791 5.0E-5 0.011636 -2.871232
2007-02-19 08:32:14 51°13.68 2°55.867 15.4023 5.0E-5 0.011636 -2.871232
2007-02-19 08:32:19 51°13.684 2°55.859 15.3896 5.0E-5 0.011635 -2.871232
2007-02-19 08:32:24 51°13.688 2°55.851 15.3761 5.0E-5 0.011635 -2.871232
2007-02-19 08:32:29 51°13.692 2°55.843 15.3754 5.0E-5 0.011634 -2.871232
2007-02-19 08:32:34 51°13.696 2°55.835 15.3818 5.0E-5 0.011633 -2.871232
2007-02-19 08:32:39 51°13.7 2°55.827 15.3815 5.0E-5 0.011633 -2.871232
2007-02-19 08:32:44 51°13.704 2°55.819 15.3816 5.0E-5 0.011633 -2.871232
2007-02-19 08:32:49 51°13.707 2°55.812 15.3773 5.0E-5 0.011632 -2.871232
2007-02-19 08:32:54 51°13.71 2°55.804 15.3786 5.0E-5 0.011631 -2.871232
2007-02-19 08:32:59 51°13.713 2°55.797 15.3618 5.0E-5 0.01163 -2.871232
2007-02-19 08:33:04 51°13.716 2°55.789 15.3655 5.0E-5 0.01163 -2.871232
2007-02-19 08:33:09 51°13.719 2°55.782 15.3611 5.0E-5 0.01163 -2.871232
2007-02-19 08:33:14 51°13.722 2°55.775 15.3656 5.0E-5 0.011629 -2.871232
2007-02-19 08:33:19 51°13.724 2°55.768 15.3642 5.0E-5 0.011628 -2.871232
2007-02-19 08:33:24 51°13.727 2°55.761 15.3611 5.0E-5 0.011627 -2.871232
2007-02-19 08:33:28 51°13.729 2°55.755 15.3618 5.0E-5 0.011627 -2.871232
2007-02-19 08:33:33 51°13.731 2°55.749 15.3604 5.0E-5 0.011626 -2.871232
2007-02-19 08:33:38 51°13.733 2°55.742 15.3615 5.0E-5 0.011626 -2.871232
2007-02-19 08:33:43 51°13.735 2°55.736 15.3529 5.0E-5 0.011625 -2.871232
2007-02-19 08:33:47 51°13.736 2°55.731 15.3563 5.0E-5 0.011624 -2.871232
2007-02-19 08:33:52 51°13.738 2°55.725 15.3486 5.0E-5 0.011624 -2.871232
2007-02-19 08:33:57 51°13.74 2°55.719 15.3507 5.0E-5 0.011623 -2.871232
2007-02-19 08:34:02 51°13.741 2°55.713 15.3306 5.0E-5 0.011622 -2.871232
2007-02-19 08:34:06 51°13.742 2°55.708 15.3423 5.0E-5 0.011622 -2.871232
2007-02-19 08:34:11 51°13.743 2°55.703 15.3387 5.0E-5 0.011621 -2.871232
2007-02-19 08:34:16 51°13.744 2°55.698 15.3572 5.0E-5 0.011621 -2.871232
2007-02-19 08:34:21 51°13.745 2°55.694 15.3478 5.0E-5 0.01162 -2.871232
2007-02-19 08:34:26 51°13.746 2°55.691 15.3558 5.0E-5 0.011619 -2.871232
2007-02-19 08:34:31 51°13.746 2°55.688 15.3497 5.0E-5 0.011619 -2.871232
2007-02-19 08:34:36 51°13.747 2°55.686 15.3606 5.0E-5 0.011619 -2.871232
2007-02-19 08:34:41 51°13.748 2°55.685 15.3568 5.0E-5 0.011618 -2.871232
2007-02-19 08:34:45 51°13.748 2°55.684 15.3605 5.0E-5 0.011617 -2.871232
2007-02-19 08:34:51 51°13.749 2°55.684 15.3587 5.0E-5 0.011616 -2.871232
2007-02-19 08:34:56 51°13.75 2°55.684 15.3593 5.0E-5 0.011615 -2.871232
2007-02-19 08:35:01 51°13.751 2°55.685 15.3572 5.0E-5 0.011615 -2.871232
2007-02-19 08:35:05 51°13.752 2°55.685 15.2698 5.0E-5 0.011615 -2.871232
2007-02-19 08:35:11 51°13.753 2°55.685 15.2664 5.0E-5 0.011614 -2.871232
2007-02-19 08:35:16 51°13.754 2°55.685 15.2679 5.0E-5 0.011613 -2.871232
2007-02-19 08:35:21 51°13.754 2°55.684 15.2803 5.0E-5 0.011613 -2.871232
2007-02-19 08:35:26 51°13.754 2°55.683 15.2804 5.0E-5 0.011612 -2.871232
2007-02-19 08:35:31 51°13.754 2°55.681 15.3063 5.0E-5 0.011611 -2.871232
2007-02-19 08:35:36 51°13.754 2°55.679 15.3078 5.0E-5 0.011611 -2.871232
2007-02-19 08:35:41 51°13.753 2°55.676 15.354 5.0E-5 0.011611 -2.871232
2007-02-19 08:35:46 51°13.753 2°55.674 15.3683 5.0E-5 0.01161 -2.871232
2007-02-19 08:35:51 51°13.752 2°55.672 15.3637 5.0E-5 0.01161 -2.871232
2007-02-19 08:35:55 51°13.751 2°55.671 15.3668 5.0E-5 0.011609 -2.871232
2007-02-19 08:36:01 51°13.751 2°55.669 15.4433 5.0E-5 0.011608 -2.871232
2007-02-19 08:36:06 51°13.752 2°55.668 15.4521 5.0E-5 0.011608 -2.871232
2007-02-19 08:36:11 51°13.753 2°55.668 15.4689 5.0E-5 0.011608 -2.871232
2007-02-19 08:36:16 51°13.754 2°55.668 15.4611 5.0E-5 0.011607 -2.871232
2007-02-19 08:36:21 51°13.756 2°55.668 15.4826 5.0E-5 0.011606 -2.871232
2007-02-19 08:36:26 51°13.758 2°55.667 15.4877 5.0E-5 0.011605 -2.871232
2007-02-19 08:36:31 51°13.76 2°55.667 15.4904 5.0E-5 0.011605 -2.871232
2007-02-19 08:36:36 51°13.762 2°55.666 15.5261 5.0E-5 0.011605 -2.871232
2007-02-19 08:36:41 51°13.765 2°55.665 15.5458 5.0E-5 0.011604 -2.871232
2007-02-19 08:36:46 51°13.769 2°55.664 15.5547 5.0E-5 0.011603 -2.871232
2007-02-19 08:36:51 51°13.772 2°55.662 15.5179 5.0E-5 0.011603 -2.871232
2007-02-19 08:36:56 51°13.776 2°55.659 15.4917 5.0E-5 0.011602 -2.871232
2007-02-19 08:37:01 51°13.781 2°55.656 15.4751 5.0E-5 0.011602 -2.871232
2007-02-19 08:37:06 51°13.786 2°55.653 15.4747 5.0E-5 0.011602 -2.871232
2007-02-19 08:37:11 51°13.792 2°55.65 15.4283 5.0E-5 0.011601 -2.871232
2007-02-19 08:37:16 51°13.799 2°55.646 15.4408 5.0E-5 0.011601 -2.871232
2007-02-19 08:37:21 51°13.806 2°55.641 15.4333 5.0E-5 0.0116 -2.871232
2007-02-19 08:37:25 51°13.812 2°55.637 15.3511 5.0E-5 0.011599 -2.871232
2007-02-19 08:37:31 51°13.822 2°55.63 15.3643 5.0E-5 0.011599 -2.871232
2007-02-19 08:37:36 51°13.831 2°55.624 15.3457 5.0E-5 0.011599 -2.871232
2007-02-19 08:37:41 51°13.84 2°55.617 15.3166 5.0E-5 0.011598 -2.871232
2007-02-19 08:37:45 51°13.848 2°55.612 15.1755 5.0E-5 0.011597 -2.871232
2007-02-19 08:37:51 51°13.859 2°55.604 15.2289 5.0E-5 0.011597 -2.871232
2007-02-19 08:37:56 51°13.87 2°55.597 15.2 5.0E-5 0.011596 -2.871232
2007-02-19 08:38:01 51°13.88 2°55.59 15.241 5.0E-5 0.011595 -2.871232
2007-02-19 08:38:05 51°13.889 2°55.584 15.2303 5.0E-5 0.011595 -2.871232
2007-02-19 08:38:11 51°13.902 2°55.576 15.235 5.0E-5 0.011595 -2.871232
2007-02-19 08:38:15 51°13.911 2°55.57 13.986 5.0E-5 0.011594 -2.871232
2007-02-19 08:38:21 51°13.924 2°55.562 11.0649 5.0E-5 0.011601 -2.871232
2007-02-19 08:38:26 51°13.935 2°55.555 9.8486 0.015795 0.080629 -2.871232
2007-02-19 08:38:31 51°13.947 2°55.549 9.2111 0.348024 1.878527 -2.871232
2007-02-19 08:38:36 51°13.959 2°55.542 8.5146 0.348024 1.878527 -2.871232
2007-02-19 08:38:41 51°13.971 2°55.536 8.3152 0.685619 3.722425 -2.871232
2007-02-19 08:38:46 51°13.983 2°55.529 8.1945 3.034001 20.455876 -2.871232
2007-02-19 08:38:51 51°13.995 2°55.523 8.0686 2.909594 21.005795 -2.871232
2007-02-19 08:38:56 51°14.007 2°55.516 8.0435 3.053207 24.328672 -2.871232
2007-02-19 08:39:01 51°14.02 2°55.509 7.9348 3.242485 26.802337 -2.871232
2007-02-19 08:39:06 51°14.032 2°55.503 7.9109 3.242485 26.802337 -2.871232
2007-02-19 08:39:11 51°14.044 2°55.495 7.9081 3.102897 26.551408 -2.871232
2007-02-19 08:39:16 51°14.056 2°55.488 7.8815 3.068554 26.788803 -2.871232
2007-02-19 08:39:21 51°14.067 2°55.48 7.8112 3.065351 27.080776 -2.871232
2007-02-19 08:39:26 51°14.079 2°55.472 7.7711 3.036489 27.037735 -2.871232
2007-02-19 08:39:31 51°14.091 2°55.463 7.7707 3.029352 27.111738 -2.871232
2007-02-19 08:39:36 51°14.102 2°55.455 7.7393 3.029352 27.111738 -2.871232
2007-02-19 08:39:41 51°14.114 2°55.446 7.7021 3.015077 27.085719 -2.871232
2007-02-19 08:39:46 51°14.126 2°55.438 7.6675 3.000078 27.001884 -2.871232
2007-02-19 08:39:51 51°14.137 2°55.429 7.6658 2.964391 26.7149 -2.871232
2007-02-19 08:39:56 51°14.148 2°55.419 7.6411 2.978356 26.915833 -2.871232
2007-02-19 08:40:01 51°14.159 2°55.409 7.6244 2.94598 26.623641 -2.871232
2007-02-19 08:40:06 51°14.17 2°55.398 7.6158 2.94598 26.623641 -2.871232
2007-02-19 08:40:11 51°14.18 2°55.387 7.621 2.939257 26.594278 -2.871232
2007-02-19 08:40:16 51°14.191 2°55.376 7.626 2.943912 26.677818 -2.871232
2007-02-19 08:40:21 51°14.201 2°55.364 7.6168 2.94805 26.758623 -2.871232
2007-02-19 08:40:26 51°14.211 2°55.351 7.6169 2.948465 26.793534 -2.871232
2007-02-19 08:40:31 51°14.221 2°55.338 7.5981 2.950327 26.832764 -2.871232
2007-02-19 08:40:36 51°14.23 2°55.325 7.5946 2.950327 26.832764 -2.871232
2007-02-19 08:40:41 51°14.24 2°55.312 7.5906 2.947327 26.821778 -2.871232
2007-02-19 08:40:47 51°14.25 2°55.295 7.6092 2.928813 26.647699 -2.871232
2007-02-19 08:40:52 51°14.259 2°55.28 7.5868 2.93595 26.72885 -2.871232
2007-02-19 08:40:58 51°14.269 2°55.262 7.6012 2.932847 26.709422 -2.871232
2007-02-19 08:41:03 51°14.277 2°55.247 7.5866 2.938639 26.777896 -2.871232
2007-02-19 08:41:08 51°14.286 2°55.232 7.5879 2.938639 26.777896 -2.871232
2007-02-19 08:41:14 51°14.295 2°55.212 7.5775 2.932744 26.728193 -2.871232
2007-02-19 08:41:19 51°14.302 2°55.196 7.6119 2.920022 26.604747 -2.871232
2007-02-19 08:41:24 51°14.31 2°55.18 7.5914 2.906679 26.475109 -2.871232
2007-02-19 08:41:29 51°14.317 2°55.164 7.5862 2.895406 26.367728 -2.871232
2007-02-19 08:41:34 51°14.325 2°55.148 7.5847 2.885581 26.272728 -2.871232
2007-02-19 08:41:38 51°14.331 2°55.135 7.5732 2.885581 26.272728 -2.871232
2007-02-19 08:41:43 51°14.339 2°55.119 7.5743 2.882272 26.248176 -2.871232
2007-02-19 08:41:48 51°14.347 2°55.102 7.5779 2.887236 26.296563 -2.871232
2007-02-19 08:41:53 51°14.355 2°55.085 7.6019 2.902543 26.451741 -2.871232
2007-02-19 08:41:57 51°14.362 2°55.071 7.5865 2.910817 26.541456 -2.871232
2007-02-19 08:42:02 51°14.371 2°55.053 7.5854 2.919815 26.639267 -2.871232
2007-02-19 08:42:07 51°14.38 2°55.035 7.5863 2.919815 26.639267 -2.871232
2007-02-19 08:42:12 51°14.388 2°55.015 7.5842 2.930055 26.745251 -2.871232
2007-02-19 08:42:17 51°14.396 2°54.995 7.5952 2.927573 26.726148 -2.871232
2007-02-19 08:42:21 51°14.401 2°54.978 7.5834 2.955397 27.004963 -2.871232
2007-02-19 08:42:26 51°14.408 2°54.956 7.5793 2.98105 27.263708 -2.871232
2007-02-19 08:42:31 51°14.414 2°54.933 7.5988 3.010119 27.559553 -2.871232
2007-02-19 08:42:35 51°14.418 2°54.914 7.5804 3.010119 27.559553 -2.871232
2007-02-19 08:42:41 51°14.426 2°54.886 7.5716 3.036085 27.82522 -2.871232
2007-02-19 08:42:46 51°14.432 2°54.862 7.5671 3.054501 28.01167 -2.871232
2007-02-19 08:42:51 51°14.437 2°54.838 7.5747 3.072297 28.194324 -2.871232
2007-02-19 08:42:55 51°14.441 2°54.818 7.5846 3.076746 28.244101 -2.871232
2007-02-19 08:43:01 51°14.445 2°54.788 7.5966 3.079229 28.267729 -2.871232
2007-02-19 08:43:06 51°14.447 2°54.762 7.6017 3.079229 28.267729 -2.871232
2007-02-19 08:43:11 51°14.448 2°54.736 7.6069 3.084816 28.328307 -2.871232
2007-02-19 08:43:16 51°14.448 2°54.71 7.6207 3.098888 28.477411 -2.871232
2007-02-19 08:43:21 51°14.448 2°54.684 7.6311 3.121962 28.714242 -2.871232
2007-02-19 08:43:26 51°14.447 2°54.658 7.6476 3.152178 29.017666 -2.871232
2007-02-19 08:43:31 51°14.446 2°54.632 7.6584 3.176497 29.261338 -2.871232
2007-02-19 08:43:36 51°14.444 2°54.605 7.6668 3.176497 29.261338 -2.871232
2007-02-19 08:43:41 51°14.441 2°54.58 7.6631 3.197403 29.469587 -2.871232
2007-02-19 08:43:45 51°14.438 2°54.559 7.6705 3.209822 29.589751 -2.871232
2007-02-19 08:43:51 51°14.432 2°54.529 7.6854 3.225864 29.745269 -2.871232
2007-02-19 08:43:56 51°14.426 2°54.504 7.68 3.24584 29.938517 -2.871232
2007-02-19 08:44:01 51°14.419 2°54.48 7.671 3.273476 30.211759 -2.871232
2007-02-19 08:44:06 51°14.412 2°54.456 7.6798 3.273476 30.211759 -2.871232
2007-02-19 08:44:11 51°14.403 2°54.433 7.6785 3.288485 30.357706 -2.871232
2007-02-19 08:44:16 51°14.395 2°54.411 7.6852 3.300597 30.474877 -2.871232
2007-02-19 08:44:21 51°14.386 2°54.388 7.6801 3.314054 30.606682 -2.871232
2007-02-19 08:44:26 51°14.377 2°54.366 7.6808 3.316228 30.626401 -2.871232
2007-02-19 08:44:31 51°14.368 2°54.343 7.6843 3.318505 30.650553 -2.871232
2007-02-19 08:44:35 51°14.361 2°54.325 7.6919 3.318505 30.650553 -2.871232
2007-02-19 08:44:41 51°14.351 2°54.298 7.7009 3.323164 30.696548 -2.871232
2007-02-19 08:44:46 51°14.342 2°54.275 7.7079 3.317159 30.633408 -2.871232
2007-02-19 08:44:51 51°14.333 2°54.252 7.7041 3.326166 30.723055 -2.871232
2007-02-19 08:44:56 51°14.325 2°54.229 7.7029 3.32865 30.750181 -2.871232
2007-02-19 08:45:01 51°14.316 2°54.206 7.7089 3.330514 30.766721 -2.871232
2007-02-19 08:45:05 51°14.309 2°54.187 7.7087 3.330514 30.766721 -2.871232
2007-02-19 08:45:11 51°14.299 2°54.159 7.727 3.333102 30.789832 -2.871232
2007-02-19 08:45:16 51°14.29 2°54.136 7.7131 3.336001 30.814426 -2.871232
2007-02-19 08:45:21 51°14.281 2°54.113 7.7157 3.352565 30.981518 -2.871232
2007-02-19 08:45:26 51°14.273 2°54.09 7.7124 3.358363 31.039214 -2.871232
2007-02-19 08:45:31 51°14.264 2°54.066 7.7104 3.364057 31.095859 -2.871232
2007-02-19 08:45:36 51°14.255 2°54.043 7.7096 3.364057 31.095859 -2.871232
2007-02-19 08:45:41 51°14.246 2°54.02 7.721 3.368301 31.135943 -2.871232
2007-02-19 08:45:45 51°14.239 2°54.001 7.7272 3.368612 31.135702 -2.871232
2007-02-19 08:45:51 51°14.228 2°53.973 7.718 3.375859 31.20999 -2.871232
2007-02-19 08:45:56 51°14.22 2°53.949 7.7263 3.375031 31.203215 -2.871232
2007-02-19 08:46:01 51°14.211 2°53.926 7.7133 3.37969 31.252704 -2.871232
2007-02-19 08:46:06 51°14.202 2°53.902 7.7263 3.37969 31.252704 -2.871232
2007-02-19 08:46:11 51°14.193 2°53.879 7.721 3.383832 31.295179 -2.871232
2007-02-19 08:46:16 51°14.184 2°53.855 7.7145 3.37762 31.229753 -2.871232
2007-02-19 08:46:21 51°14.175 2°53.832 7.7094 3.386316 31.316362 -2.871232
2007-02-19 08:46:25 51°14.168 2°53.813 7.7149 3.384039 31.291279 -2.871232
2007-02-19 08:46:31 51°14.157 2°53.785 7.7219 3.388905 31.341188 -2.871232
2007-02-19 08:46:36 51°14.148 2°53.762 7.7259 3.388905 31.341188 -2.871232
2007-02-19 08:46:41 51°14.139 2°53.738 7.7097 3.375238 31.20019 -2.871232
2007-02-19 08:46:45 51°14.132 2°53.719 7.7139 3.390458 31.358843 -2.871232
2007-02-19 08:46:51 51°14.121 2°53.691 7.7137 3.392943 31.388652 -2.871232
2007-02-19 08:46:56 51°14.112 2°53.667 7.7209 3.389526 31.355319 -2.871232
2007-02-19 08:47:01 51°14.103 2°53.643 7.7175 3.381864 31.275002 -2.871232
2007-02-19 08:47:06 51°14.094 2°53.62 7.712 3.381864 31.275002 -2.871232
2007-02-19 08:47:11 51°14.086 2°53.596 7.7084 3.372339 31.176475 -2.871232
2007-02-19 08:47:15 51°14.079 2°53.577 7.707 3.387041 31.330687 -2.871232
2007-02-19 08:47:21 51°14.068 2°53.549 7.7159 3.392011 31.382542 -2.871232
2007-02-19 08:47:26 51°14.059 2°53.525 7.7085 3.384764 31.30732 -2.871232
2007-02-19 08:47:31 51°14.05 2°53.501 7.7118 3.383521 31.294575 -2.871232
2007-02-19 08:47:36 51°14.041 2°53.477 7.7104 3.383521 31.294575 -2.871232
2007-02-19 08:47:41 51°14.032 2°53.454 7.7109 3.394807 31.41296 -2.871232
2007-02-19 08:47:46 51°14.023 2°53.43 7.7213 3.39284 31.39536 -2.871232
2007-02-19 08:47:51 51°14.014 2°53.406 7.7108 3.389837 31.367133 -2.871232
2007-02-19 08:47:56 51°14.006 2°53.383 7.7171 3.391908 31.388386 -2.871232
2007-02-19 08:48:01 51°13.997 2°53.359 7.7136 3.392943 31.399014 -2.871232
2007-02-19 08:48:06 51°13.989 2°53.336 7.7074 3.392943 31.399014 -2.871232
2007-02-19 08:48:11 51°13.98 2°53.312 7.7143 3.394186 31.410904 -2.871232
2007-02-19 08:48:16 51°13.971 2°53.288 7.7177 3.389526 31.36222 -2.871232
2007-02-19 08:48:21 51°13.962 2°53.264 7.7166 3.388387 31.351394 -2.871232
2007-02-19 08:48:26 51°13.953 2°53.24 7.7124 3.393254 31.401338 -2.871232
2007-02-19 08:48:31 51°13.944 2°53.216 7.711 3.389941 31.370785 -2.871232
2007-02-19 08:48:36 51°13.935 2°53.192 7.7147 3.389941 31.370785 -2.871232
2007-02-19 08:48:41 51°13.926 2°53.168 7.7136 3.387766 31.350194 -2.871232
2007-02-19 08:48:46 51°13.917 2°53.144 7.7078 3.394393 31.416486 -2.871232
2007-02-19 08:48:51 51°13.909 2°53.12 7.7052 3.395014 31.424593 -2.871232
2007-02-19 08:48:56 51°13.899 2°53.096 7.7064 3.381968 31.289832 -2.871232
2007-02-19 08:49:01 51°13.891 2°53.072 7.7057 3.394393 31.419944 -2.871232
2007-02-19 08:49:06 51°13.882 2°53.048 7.7154 3.394393 31.419944 -2.871232
2007-02-19 08:49:11 51°13.873 2°53.024 7.7114 3.387559 31.349793 -2.871232
2007-02-19 08:49:16 51°13.864 2°52.999 7.7088 3.386317 31.337041 -2.871232
2007-02-19 08:49:21 51°13.855 2°52.975 7.7004 3.393772 31.416159 -2.871232
2007-02-19 08:49:26 51°13.846 2°52.951 7.7023 3.388595 31.365599 -2.871232
2007-02-19 08:49:31 51°13.837 2°52.927 7.7099 3.391597 31.394699 -2.871232
2007-02-19 08:49:36 51°13.828 2°52.903 7.706 3.391597 31.394699 -2.871232
2007-02-19 08:49:41 51°13.819 2°52.878 7.7147 3.377413 31.248252 -2.871232
2007-02-19 08:49:45 51°13.812 2°52.859 7.703 3.385696 31.334976 -2.871232
2007-02-19 08:49:51 51°13.802 2°52.83 7.6999 3.392633 31.409651 -2.871232
2007-02-19 08:49:56 51°13.793 2°52.805 7.7009 3.397395 31.459431 -2.871232
2007-02-19 08:50:01 51°13.784 2°52.78 7.7094 3.390044 31.383936 -2.871232
2007-02-19 08:50:06 51°13.774 2°52.755 7.7042 3.390044 31.383936 -2.871232
2007-02-19 08:50:11 51°13.765 2°52.729 7.7061 3.393564 31.418356 -2.871232
2007-02-19 08:50:16 51°13.755 2°52.703 7.7109 3.397188 31.454707 -2.871232
2007-02-19 08:50:21 51°13.746 2°52.676 7.7054 3.393357 31.417959 -2.871232
2007-02-19 08:50:26 51°13.736 2°52.649 7.6999 3.378759 31.269806 -2.871232
2007-02-19 08:50:31 51°13.726 2°52.622 7.7002 3.392115 31.406928 -2.871232
2007-02-19 08:50:36 51°13.716 2°52.595 7.699 3.392115 31.406928 -2.871232
2007-02-19 08:50:41 51°13.706 2°52.568 7.7054 3.395118 31.438631 -2.871232
2007-02-19 08:50:46 51°13.696 2°52.54 7.6955 3.395118 31.438631 -2.871232
2007-02-19 08:50:51 51°13.686 2°52.513 7.6992 3.401434 31.503513 -2.871232
2007-02-19 08:50:56 51°13.675 2°52.485 7.7019 3.400191 31.493349 -2.871232
2007-02-19 08:51:01 51°13.665 2°52.458 7.6999 3.391701 31.406997 -2.871232
2007-02-19 08:51:06 51°13.655 2°52.43 7.6957 3.391701 31.406997 -2.871232
2007-02-19 08:51:11 51°13.644 2°52.403 7.7032 3.390769 31.400885 -2.871232
2007-02-19 08:51:16 51°13.633 2°52.375 7.7001 3.396257 31.458123 -2.871232
2007-02-19 08:51:21 51°13.623 2°52.347 7.6997 3.394496 31.440039 -2.871232
2007-02-19 08:51:26 51°13.612 2°52.319 7.7013 3.394807 31.442365 -2.871232
2007-02-19 08:51:31 51°13.602 2°52.291 7.7039 3.392012 31.413647 -2.871232
2007-02-19 08:51:36 51°13.592 2°52.263 7.6953 3.392012 31.413647 -2.871232
2007-02-19 08:51:41 51°13.581 2°52.235 7.7017 3.392426 31.419631 -2.871232
2007-02-19 08:51:46 51°13.571 2°52.207 7.703 3.399984 31.497291 -2.871232
2007-02-19 08:51:51 51°13.56 2°52.178 7.698 3.397913 31.475145 -2.871232
2007-02-19 08:51:56 51°13.551 2°52.15 7.6977 3.397292 31.467895 -2.871232
2007-02-19 08:52:01 51°13.541 2°52.121 7.7041 3.395221 31.44662 -2.871232
2007-02-19 08:52:06 51°13.531 2°52.092 7.7049 3.395221 31.44662 -2.871232
2007-02-19 08:52:11 51°13.521 2°52.063 7.7008 3.393772 31.432594 -2.871232
2007-02-19 08:52:16 51°13.512 2°52.033 7.7046 3.38963 31.391779 -2.871232
2007-02-19 08:52:21 51°13.502 2°52.004 7.7035 3.392219 31.419234 -2.871232
2007-02-19 08:52:26 51°13.493 2°51.975 7.7004 3.39139 31.40986 -2.871232
2007-02-19 08:52:31 51°13.484 2°51.945 7.7013 3.386213 31.356686 -2.871232
2007-02-19 08:52:36 51°13.474 2°51.916 7.6986 3.386213 31.356686 -2.871232
2007-02-19 08:52:41 51°13.465 2°51.887 7.6971 3.391287 31.407932 -2.871232
2007-02-19 08:52:46 51°13.454 2°51.858 7.6959 3.393461 31.430268 -2.871232
2007-02-19 08:52:51 51°13.444 2°51.829 7.6914 3.390873 31.404542 -2.871232
2007-02-19 08:52:56 51°13.434 2°51.8 7.694 3.397396 31.471559 -2.871232
2007-02-19 08:53:01 51°13.424 2°51.771 7.6891 3.397292 31.471361 -2.871232
2007-02-19 08:53:06 51°13.414 2°51.743 7.6884 3.397292 31.471361 -2.871232
2007-02-19 08:53:11 51°13.404 2°51.714 7.6895 3.385799 31.355022 -2.871232
2007-02-19 08:53:16 51°13.394 2°51.685 7.6878 3.395118 31.452484 -2.871232
2007-02-19 08:53:21 51°13.383 2°51.656 7.691 3.395221 31.456147 -2.871232
2007-02-19 08:53:26 51°13.374 2°51.627 7.6834 3.234765 29.81478 -2.871232
2007-02-19 08:53:31 51°13.363 2°51.598 7.6961 3.398224 31.489608 -2.871232
2007-02-19 08:53:36 51°13.354 2°51.569 7.6892 3.398224 31.489608 -2.871232
2007-02-19 08:53:41 51°13.344 2°51.54 7.6884 3.39781 31.487085 -2.871232
2007-02-19 08:53:46 51°13.334 2°51.51 7.6944 3.39957 31.506048 -2.871232
2007-02-19 08:53:51 51°13.325 2°51.48 7.6926 3.400088 31.512238 -2.871232
2007-02-19 08:53:56 51°13.316 2°51.451 7.6851 3.400502 31.518232 -2.871232
2007-02-19 08:54:01 51°13.307 2°51.421 7.6856 3.400191 31.513302 -2.871232
2007-02-19 08:54:06 51°13.297 2°51.392 7.6826 3.400191 31.513302 -2.871232
2007-02-19 08:54:11 51°13.287 2°51.362 7.6882 3.400606 31.516692 -2.871232
2007-02-19 08:54:16 51°13.277 2°51.333 7.6841 3.401227 31.523079 -2.871232
2007-02-19 08:54:21 51°13.267 2°51.304 7.6836 3.401227 31.523079 -2.871232
2007-02-19 08:54:26 51°13.257 2°51.275 7.6872 3.401952 31.532268 -2.871232
2007-02-19 08:54:31 51°13.247 2°51.246 7.6865 3.402469 31.540198 -2.871232
2007-02-19 08:54:36 51°13.236 2°51.218 7.688 3.402469 31.540198 -2.871232
2007-02-19 08:54:41 51°13.226 2°51.189 7.6883 3.402883 31.547065 -2.871232
2007-02-19 08:54:46 51°13.215 2°51.16 7.6931 3.402987 31.548999 -2.871232
2007-02-19 08:54:51 51°13.205 2°51.131 7.6918 3.403505 31.555193 -2.871232
2007-02-19 08:54:56 51°13.195 2°51.101 7.6924 3.403608 31.556258 -2.871232
2007-02-19 08:55:01 51°13.185 2°51.072 7.6951 3.403712 31.555584 -2.871232
2007-02-19 08:55:06 51°13.176 2°51.042 7.6984 3.403712 31.555584 -2.871232
2007-02-19 08:55:11 51°13.166 2°51.013 7.6853 3.404022 31.558778 -2.871232
2007-02-19 08:55:16 51°13.157 2°50.983 7.6935 3.403608 31.55278 -2.871232
2007-02-19 08:55:21 51°13.147 2°50.953 7.6869 3.403505 31.550846 -2.871232
2007-02-19 08:55:26 51°13.138 2°50.923 7.6894 3.403815 31.552302 -2.871232
2007-02-19 08:55:31 51°13.128 2°50.893 7.6831 3.403608 31.550172 -2.871232
2007-02-19 08:55:36 51°13.119 2°50.864 7.6868 3.403608 31.550172 -2.871232
2007-02-19 08:55:41 51°13.109 2°50.834 7.6816 3.403608 31.548434 -2.871232
2007-02-19 08:55:46 51°13.099 2°50.805 7.6881 3.40278 31.540786 -2.871232
2007-02-19 08:55:51 51°13.089 2°50.775 7.6824 3.402676 31.542328 -2.871232
2007-02-19 08:55:56 51°13.079 2°50.746 7.6808 3.402676 31.542328 -2.871232
2007-02-19 08:56:01 51°13.069 2°50.717 7.6822 3.402573 31.544739 -2.871232
2007-02-19 08:56:06 51°13.059 2°50.687 7.6798 3.402573 31.544739 -2.871232
2007-02-19 08:56:11 51°13.049 2°50.658 7.6873 3.402469 31.544544 -2.871232
2007-02-19 08:56:15 51°13.041 2°50.635 7.6814 3.401952 31.540957 -2.871232
2007-02-19 08:56:21 51°13.029 2°50.599 7.6827 3.401745 31.539697 -2.871232
2007-02-19 08:56:26 51°13.019 2°50.57 7.6853 3.401952 31.543565 -2.871232
2007-02-19 08:56:31 51°13.009 2°50.54 7.6827 3.402159 31.545695 -2.871232
2007-02-19 08:56:36 51°12.999 2°50.511 7.6844 3.402159 31.545695 -2.871232
2007-02-19 08:56:41 51°12.99 2°50.481 7.6899 3.402469 31.54889 -2.871232
2007-02-19 08:56:46 51°12.98 2°50.452 7.6847 3.402676 31.550151 -2.871232
2007-02-19 08:56:51 51°12.97 2°50.422 7.6839 3.403401 31.557606 -2.871232
2007-02-19 08:56:56 51°12.96 2°50.392 7.6792 3.403919 31.563801 -2.871232
2007-02-19 08:57:01 51°12.951 2°50.362 7.6757 3.404333 31.568062 -2.871232
2007-02-19 08:57:06 51°12.941 2°50.332 7.6786 3.404333 31.568062 -2.871232
2007-02-19 08:57:11 51°12.931 2°50.303 7.6758 3.404644 31.570387 -2.871232
2007-02-19 08:57:16 51°12.921 2°50.273 7.6792 3.404954 31.573582 -2.871232
2007-02-19 08:57:21 51°12.912 2°50.243 7.6786 3.405886 31.584039 -2.871232
2007-02-19 08:57:26 51°12.902 2°50.213 7.6775 3.406611 31.594108 -2.871232
2007-02-19 08:57:31 51°12.892 2°50.183 7.6787 3.407129 31.600306 -2.871232
2007-02-19 08:57:36 51°12.882 2°50.154 7.6771 3.407129 31.600306 -2.871232
2007-02-19 08:57:41 51°12.873 2°50.124 7.6764 3.407543 31.60631 -2.871232
2007-02-19 08:57:46 51°12.862 2°50.095 7.6731 3.408061 31.61338 -2.871232
2007-02-19 08:57:51 51°12.853 2°50.065 7.6756 3.408268 31.615511 -2.871232
2007-02-19 08:57:56 51°12.842 2°50.036 7.6777 3.408371 31.616576 -2.871232
2007-02-19 08:58:01 51°12.832 2°50.006 7.676 3.408786 31.62171 -2.871232
2007-02-19 08:58:06 51°12.822 2°49.977 7.6746 3.408786 31.62171 -2.871232
2007-02-19 08:58:11 51°12.812 2°49.947 7.6721 3.4092 31.625973 -2.871232
2007-02-19 08:58:16 51°12.802 2°49.918 7.6729 3.409303 31.628782 -2.871232
2007-02-19 08:58:21 51°12.792 2°49.888 7.6709 3.409303 31.629654 -2.871232
2007-02-19 08:58:25 51°12.784 2°49.864 7.6709 3.409407 31.628976 -2.871232
2007-02-19 08:58:31 51°12.772 2°49.829 7.6686 3.409407 31.628976 -2.871232
2007-02-19 08:58:35 51°12.765 2°49.804 7.6681 3.409407 31.628976 -2.871232
2007-02-19 08:58:41 51°12.753 2°49.769 7.6684 3.40951 31.631786 -2.871232
2007-02-19 08:58:46 51°12.743 2°49.739 7.6646 3.409303 31.630526 -2.871232
2007-02-19 08:58:51 51°12.733 2°49.709 7.6676 3.4092 31.627717 -2.871232
2007-02-19 08:58:56 51°12.724 2°49.679 7.6651 3.408786 31.625198 -2.871232
2007-02-19 08:59:01 51°12.714 2°49.649 7.6637 3.40775 31.618027 -2.871232
2007-02-19 08:59:06 51°12.704 2°49.619 7.6649 3.40775 31.618027 -2.871232
2007-02-19 08:59:11 51°12.693 2°49.59 7.6628 3.406715 31.609113 -2.871232
2007-02-19 08:59:16 51°12.683 2°49.56 7.6669 3.405679 31.598455 -2.871232
2007-02-19 08:59:21 51°12.673 2°49.53 7.6697 3.40454 31.588474 -2.871232
2007-02-19 08:59:26 51°12.663 2°49.5 7.6642 3.403712 31.581689 -2.871232
2007-02-19 08:59:31 51°12.653 2°49.47 7.6624 3.402987 31.575971 -2.871232
2007-02-19 08:59:36 51°12.643 2°49.44 7.6658 3.402987 31.575971 -2.871232
2007-02-19 08:59:41 51°12.633 2°49.41 7.6606 3.402056 31.567249 -2.871232
2007-02-19 08:59:46 51°12.624 2°49.38 7.6584 3.401538 31.56192 -2.871232
2007-02-19 08:59:51 51°12.614 2°49.35 7.6632 3.40102 31.554851 -2.871232
2007-02-19 08:59:56 51°12.603 2°49.32 7.6636 3.400813 31.55185 -2.871232
2007-02-19 09:00:01 51°12.593 2°49.29 7.6642 3.401124 31.555917 -2.871232
2007-02-19 09:00:06 51°12.583 2°49.26 7.6644 3.401124 31.555917 -2.871232
2007-02-19 09:00:11 51°12.573 2°49.231 7.6676 3.401227 31.556982 -2.871232
2007-02-19 09:00:16 51°12.563 2°49.201 7.6643 3.401848 31.565988 -2.871232
2007-02-19 09:00:21 51°12.553 2°49.171 7.6692 3.402366 31.573059 -2.871232
2007-02-19 09:00:26 51°12.543 2°49.141 7.668 3.402573 31.57432 -2.871232
2007-02-19 09:00:31 51°12.533 2°49.111 7.6662 3.402884 31.576647 -2.871232
2007-02-19 09:00:36 51°12.523 2°49.081 7.6667 3.402884 31.576647 -2.871232
2007-02-19 09:00:41 51°12.513 2°49.05 7.6667 3.403505 31.583042 -2.871232
2007-02-19 09:00:46 51°12.503 2°49.02 7.6709 3.403919 31.586434 -2.871232
2007-02-19 09:00:51 51°12.493 2°48.99 7.6692 3.404748 31.593219 -2.871232
2007-02-19 09:00:55 51°12.485 2°48.966 7.6696 3.405369 31.598743 -2.871232
2007-02-19 09:01:01 51°12.473 2°48.93 7.6656 3.40599 31.60601 -2.871232
2007-02-19 09:01:06 51°12.463 2°48.901 7.6699 3.40599 31.60601 -2.871232
2007-02-19 09:01:11 51°12.453 2°48.871 7.6654 3.406715 31.613471 -2.871232
2007-02-19 09:01:16 51°12.442 2°48.841 7.6656 3.407233 31.618801 -2.871232
2007-02-19 09:01:21 51°12.432 2°48.811 7.6697 3.40744 31.620061 -2.871232
2007-02-19 09:01:26 51°12.422 2°48.781 7.6639 3.40744 31.620061 -2.871232
2007-02-19 09:01:31 51°12.412 2°48.752 7.6652 3.407543 31.621127 -2.871232
2007-02-19 09:01:36 51°12.402 2°48.722 7.6676 3.407543 31.621127 -2.871232
2007-02-19 09:01:41 51°12.392 2°48.692 7.6687 3.407543 31.621127 -2.871232
2007-02-19 09:01:46 51°12.382 2°48.663 7.6722 3.407647 31.623937 -2.871232
2007-02-19 09:01:51 51°12.372 2°48.633 7.6662 3.407647 31.623937 -2.871232
2007-02-19 09:01:56 51°12.362 2°48.603 7.6677 3.40775 31.625875 -2.871232
2007-02-19 09:02:01 51°12.352 2°48.573 7.664 3.407957 31.62888 -2.871232
2007-02-19 09:02:06 51°12.342 2°48.544 7.6664 3.407957 31.62888 -2.871232
2007-02-19 09:02:11 51°12.332 2°48.514 7.6646 3.408061 31.628201 -2.871232
2007-02-19 09:02:16 51°12.322 2°48.484 7.6603 3.408061 31.627329 -2.871232
2007-02-19 09:02:21 51°12.312 2°48.455 7.6614 3.408164 31.628395 -2.871232
2007-02-19 09:02:26 51°12.301 2°48.425 7.656 3.407957 31.627135 -2.871232
2007-02-19 09:02:31 51°12.291 2°48.396 7.6628 3.40775 31.626748 -2.871232
2007-02-19 09:02:36 51°12.281 2°48.366 7.657 3.40775 31.626748 -2.871232
2007-02-19 09:02:41 51°12.27 2°48.336 7.6646 3.40744 31.624422 -2.871232
2007-02-19 09:02:46 51°12.26 2°48.306 7.6537 3.407129 31.622968 -2.871232
2007-02-19 09:02:51 51°12.25 2°48.277 7.6557 3.406818 31.621514 -2.871232
2007-02-19 09:02:55 51°12.242 2°48.253 7.6545 3.406508 31.619187 -2.871232
2007-02-19 09:03:01 51°12.23 2°48.217 7.6499 3.406094 31.614922 -2.871232
2007-02-19 09:03:06 51°12.22 2°48.187 7.6543 3.406094 31.614922 -2.871232
2007-02-19 09:03:11 51°12.21 2°48.158 7.6609 3.40568 31.61153 -2.871232
2007-02-19 09:03:15 51°12.202 2°48.134 7.6585 3.405265 31.608137 -2.871232
2007-02-19 09:03:21 51°12.191 2°48.098 7.6546 3.405058 31.60862 -2.871232
2007-02-19 09:03:26 51°12.181 2°48.067 7.6574 3.404851 31.60736 -2.871232
2007-02-19 09:03:31 51°12.172 2°48.036 7.6529 3.404748 31.60891 -2.871232
2007-02-19 09:03:36 51°12.162 2°48.006 7.6519 3.404748 31.60891 -2.871232
2007-02-19 09:03:41 51°12.153 2°47.976 7.6563 3.404334 31.6029 -2.871232
2007-02-19 09:03:46 51°12.144 2°47.945 7.6552 3.404126 31.599024 -2.871232
2007-02-19 09:03:51 51°12.135 2°47.914 7.6497 3.404437 31.601351 -2.871232
2007-02-19 09:03:56 51°12.126 2°47.884 7.6482 3.404541 31.603289 -2.871232
2007-02-19 09:04:01 51°12.117 2°47.853 7.6545 3.404748 31.606293 -2.871232
2007-02-19 09:04:06 51°12.108 2°47.823 7.65 3.404748 31.606293 -2.871232
2007-02-19 09:04:11 51°12.099 2°47.792 7.6497 3.405058 31.611237 -2.871232
2007-02-19 09:04:16 51°12.09 2°47.762 7.6495 3.405162 31.611431 -2.871232
2007-02-19 09:04:21 51°12.081 2°47.731 7.6487 3.40568 31.61938 -2.871232
2007-02-19 09:04:26 51°12.072 2°47.7 7.6476 3.406094 31.625391 -2.871232
2007-02-19 09:04:31 51°12.063 2°47.67 7.6472 3.406301 31.627524 -2.871232
2007-02-19 09:04:36 51°12.054 2°47.64 7.645 3.406301 31.627524 -2.871232
2007-02-19 09:04:41 51°12.045 2°47.609 7.6481 3.406612 31.630724 -2.871232
2007-02-19 09:04:46 51°12.036 2°47.579 7.6491 3.406819 31.63373 -2.871232
2007-02-19 09:04:51 51°12.027 2°47.548 7.6487 3.40744 31.64013 -2.871232
2007-02-19 09:04:56 51°12.017 2°47.518 7.645 3.408061 31.648277 -2.871232
2007-02-19 09:05:01 51°12.008 2°47.487 7.648 3.40889 31.657685 -2.871232
2007-02-19 09:05:06 51°12 2°47.457 7.6533 3.40889 31.657685 -2.871232
2007-02-19 09:05:11 51°11.991 2°47.426 7.6521 3.409614 31.666026 -2.871232
2007-02-19 09:05:15 51°11.983 2°47.402 7.6546 3.410028 31.66942 -2.871232
2007-02-19 09:05:21 51°11.973 2°47.365 7.656 3.410753 31.676014 -2.871232
2007-02-19 09:05:26 51°11.964 2°47.334 7.6524 3.411582 31.685424 -2.871232
2007-02-19 09:05:31 51°11.955 2°47.304 7.6583 3.412099 31.689884 -2.871232
2007-02-19 09:05:36 51°11.945 2°47.274 7.6576 3.412099 31.689884 -2.871232
2007-02-19 09:05:41 51°11.936 2°47.243 7.6553 3.412617 31.694344 -2.871232
2007-02-19 09:05:46 51°11.927 2°47.213 7.6566 3.413342 31.700063 -2.871232
2007-02-19 09:05:51 51°11.918 2°47.182 7.6573 3.413756 31.702581 -2.871232
2007-02-19 09:05:56 51°11.909 2°47.151 7.6578 3.414481 31.709174 -2.871232
2007-02-19 09:06:01 51°11.9 2°47.121 7.6618 3.414998 31.713634 -2.871232
2007-02-19 09:06:06 51°11.891 2°47.091 7.6587 3.414998 31.713634 -2.871232
2007-02-19 09:06:11 51°11.882 2°47.06 7.6524 3.41562 31.720035 -2.871232
2007-02-19 09:06:16 51°11.873 2°47.03 7.6547 3.41593 31.723236 -2.871232
2007-02-19 09:06:21 51°11.864 2°46.999 7.6607 3.416552 31.728762 -2.871232
2007-02-19 09:06:26 51°11.855 2°46.968 7.6557 3.417069 31.734097 -2.871232
2007-02-19 09:06:31 51°11.846 2°46.938 7.6593 3.417587 31.739432 -2.871232
2007-02-19 09:06:36 51°11.837 2°46.908 7.6594 3.417587 31.739432 -2.871232
2007-02-19 09:06:41 51°11.828 2°46.877 7.6557 3.418312 31.747777 -2.871232
2007-02-19 09:06:46 51°11.819 2°46.846 7.6592 3.418933 31.755056 -2.871232
2007-02-19 09:06:51 51°11.81 2°46.816 7.6582 3.419347 31.759324 -2.871232
2007-02-19 09:06:56 51°11.801 2°46.785 7.6634 3.420072 31.765918 -2.871232
2007-02-19 09:07:01 51°11.792 2°46.755 7.6587 3.42059 31.7695 -2.871232
2007-02-19 09:07:05 51°11.785 2°46.731 7.6599 3.42059 31.7695 -2.871232
2007-02-19 09:07:11 51°11.774 2°46.694 7.6609 3.421418 31.778037 -2.871232
2007-02-19 09:07:16 51°11.765 2°46.664 7.6567 3.422247 31.786575 -2.871232
2007-02-19 09:07:21 51°11.756 2°46.633 7.6603 3.422764 31.792788 -2.871232
2007-02-19 09:07:26 51°11.747 2°46.602 7.6563 3.422971 31.793168 -2.871232
2007-02-19 09:07:31 51°11.738 2°46.572 7.66 3.423489 31.798504 -2.871232
2007-02-19 09:07:36 51°11.729 2°46.541 7.6573 3.423489 31.798504 -2.871232
2007-02-19 09:07:41 51°11.719 2°46.511 7.661 3.424007 31.80384 -2.871232
2007-02-19 09:07:46 51°11.71 2°46.48 7.6587 3.424628 31.811121 -2.871232
2007-02-19 09:07:51 51°11.701 2°46.449 7.6636 3.424835 31.813256 -2.871232
2007-02-19 09:07:56 51°11.693 2°46.419 7.6639 3.425456 31.820538 -2.871232
2007-02-19 09:08:01 51°11.683 2°46.388 7.6675 3.425767 31.82374 -2.871232
2007-02-19 09:08:06 51°11.675 2°46.358 7.6666 3.425767 31.82374 -2.871232
2007-02-19 09:08:11 51°11.666 2°46.327 7.668 3.426181 31.82801 -2.871232
2007-02-19 09:08:16 51°11.657 2°46.297 7.6685 3.426595 31.831401 -2.871232
2007-02-19 09:08:21 51°11.648 2°46.266 7.6704 3.427113 31.836738 -2.871232
2007-02-19 09:08:26 51°11.639 2°46.236 7.6664 3.42732 31.837116 -2.871232
2007-02-19 09:08:31 51°11.63 2°46.205 7.6652 3.427734 31.838751 -2.871232
2007-02-19 09:08:36 51°11.621 2°46.175 7.6668 3.427734 31.838751 -2.871232
2007-02-19 09:08:41 51°11.612 2°46.144 7.668 3.428356 31.845155 -2.871232
2007-02-19 09:08:46 51°11.603 2°46.113 7.6678 3.428873 31.848734 -2.871232
2007-02-19 09:08:51 51°11.594 2°46.083 7.6672 3.429598 31.856205 -2.871232
2007-02-19 09:08:56 51°11.585 2°46.053 7.6711 3.430323 31.863677 -2.871232
2007-02-19 09:09:01 51°11.576 2°46.022 7.6695 3.431048 31.872028 -2.871232
2007-02-19 09:09:06 51°11.568 2°45.991 7.6735 3.431048 31.872028 -2.871232
2007-02-19 09:09:11 51°11.559 2°45.96 7.6771 3.431566 31.876486 -2.871232
2007-02-19 09:09:16 51°11.551 2°45.93 7.6695 3.43198 31.880756 -2.871232
2007-02-19 09:09:21 51°11.543 2°45.898 7.6718 3.432601 31.887161 -2.871232
2007-02-19 09:09:26 51°11.535 2°45.867 7.6722 3.433119 31.890739 -2.871232
2007-02-19 09:09:31 51°11.527 2°45.836 7.6803 3.43374 31.896264 -2.871232
2007-02-19 09:09:36 51°11.519 2°45.805 7.6743 3.43374 31.896264 -2.871232
2007-02-19 09:09:41 51°11.511 2°45.774 7.6819 3.434258 31.899842 -2.871232
2007-02-19 09:09:46 51°11.503 2°45.743 7.6739 3.434879 31.904486 -2.871232
2007-02-19 09:09:51 51°11.495 2°45.711 7.6817 3.435604 31.912838 -2.871232
2007-02-19 09:09:55 51°11.489 2°45.687 7.6788 3.436122 31.918176 -2.871232
2007-02-19 09:10:01 51°11.479 2°45.649 7.6792 3.436432 31.920498 -2.871232
2007-02-19 09:10:06 51°11.471 2°45.618 7.6775 3.436432 31.920498 -2.871232
2007-02-19 09:10:11 51°11.463 2°45.587 7.6776 3.437054 31.926022 -2.871232
2007-02-19 09:10:16 51°11.455 2°45.556 7.6769 3.437364 31.927464 -2.871232
2007-02-19 09:10:21 51°11.447 2°45.525 7.683 3.438193 31.936003 -2.871232
2007-02-19 09:10:26 51°11.439 2°45.494 7.6772 3.438607 31.938512 -2.871232
2007-02-19 09:10:31 51°11.431 2°45.463 7.6836 3.439125 31.943849 -2.871232
2007-02-19 09:10:36 51°11.423 2°45.432 7.6792 3.439125 31.943849 -2.871232
2007-02-19 09:10:41 51°11.415 2°45.402 7.6823 3.439746 31.951135 -2.871232
2007-02-19 09:10:46 51°11.407 2°45.37 7.6825 3.440367 31.958422 -2.871232
2007-02-19 09:10:51 51°11.4 2°45.339 7.6835 3.440678 31.960743 -2.871232
2007-02-19 09:10:56 51°11.391 2°45.308 7.6848 3.441196 31.9652 -2.871232
2007-02-19 09:11:01 51°11.384 2°45.277 7.6928 3.44161 31.968588 -2.871232
2007-02-19 09:11:06 51°11.376 2°45.247 7.6857 3.44161 31.968588 -2.871232
2007-02-19 09:11:11 51°11.367 2°45.216 7.6836 3.442128 31.973926 -2.871232
2007-02-19 09:11:16 51°11.359 2°45.185 7.6897 3.442335 31.97518 -2.871232
2007-02-19 09:11:21 51°11.351 2°45.154 7.6887 3.442542 31.975551 -2.871232
2007-02-19 09:11:26 51°11.343 2°45.123 7.692 3.442852 31.97699 -2.871232
2007-02-19 09:11:31 51°11.335 2°45.092 7.6888 3.443163 31.978429 -2.871232
2007-02-19 09:11:36 51°11.327 2°45.061 7.6853 3.443163 31.978429 -2.871232
2007-02-19 09:11:41 51°11.319 2°45.03 7.6881 3.443681 31.984648 -2.871232
2007-02-19 09:11:46 51°11.311 2°45 7.6866 3.443991 31.987851 -2.871232
2007-02-19 09:11:51 51°11.303 2°44.969 7.6866 3.444302 31.990171 -2.871232
2007-02-19 09:11:56 51°11.295 2°44.938 7.6869 3.444613 31.992492 -2.871232
2007-02-19 09:12:01 51°11.287 2°44.907 7.6936 3.444923 31.994812 -2.871232
2007-02-19 09:12:06 51°11.28 2°44.876 7.6983 3.444923 31.994812 -2.871232
2007-02-19 09:12:11 51°11.272 2°44.844 7.6986 3.445337 32.000846 -2.871232
2007-02-19 09:12:15 51°11.266 2°44.819 7.6943 3.445648 32.004049 -2.871232
2007-02-19 09:12:21 51°11.257 2°44.782 7.6898 3.445752 32.005117 -2.871232
2007-02-19 09:12:26 51°11.25 2°44.75 7.687 3.446062 32.007437 -2.871232
2007-02-19 09:12:31 51°11.243 2°44.719 7.6921 3.446166 32.006739 -2.871232
2007-02-19 09:12:36 51°11.235 2°44.688 7.6926 3.446166 32.006739 -2.871232
2007-02-19 09:12:41 51°11.228 2°44.657 7.6916 3.446373 32.00711 -2.871232
2007-02-19 09:12:46 51°11.22 2°44.625 7.6925 3.44658 32.00748 -2.871232
2007-02-19 09:12:51 51°11.213 2°44.594 7.69 3.446891 32.012447 -2.871232
2007-02-19 09:12:56 51°11.206 2°44.563 7.6904 3.447098 32.016347 -2.871232
2007-02-19 09:13:01 51°11.199 2°44.531 7.6896 3.447098 32.015465 -2.871232
2007-02-19 09:13:06 51°11.192 2°44.5 7.6923 3.447098 32.015465 -2.871232
2007-02-19 09:13:11 51°11.186 2°44.468 7.6928 3.447098 32.014582 -2.871232
2007-02-19 09:13:16 51°11.179 2°44.436 7.6912 3.447305 32.016717 -2.871232
2007-02-19 09:13:21 51°11.172 2°44.405 7.6908 3.447512 32.019735 -2.871232
2007-02-19 09:13:26 51°11.166 2°44.373 7.6903 3.447616 32.021685 -2.871232
2007-02-19 09:13:31 51°11.16 2°44.342 7.6879 3.447823 32.02382 -2.871232
2007-02-19 09:13:36 51°11.153 2°44.31 7.6918 3.447823 32.02382 -2.871232
2007-02-19 09:13:41 51°11.146 2°44.278 7.6907 3.447823 32.022937 -2.871232
2007-02-19 09:13:46 51°11.139 2°44.247 7.6907 3.447926 32.024005 -2.871232
2007-02-19 09:13:51 51°11.132 2°44.215 7.6936 3.44803 32.025072 -2.871232
2007-02-19 09:13:56 51°11.126 2°44.184 7.6893 3.448133 32.02614 -2.871232
2007-02-19 09:14:01 51°11.119 2°44.152 7.6889 3.44834 32.029158 -2.871232
2007-02-19 09:14:06 51°11.112 2°44.12 7.6883 3.44834 32.029158 -2.871232
2007-02-19 09:14:11 51°11.106 2°44.089 7.6933 3.448444 32.029343 -2.871232
2007-02-19 09:14:16 51°11.099 2°44.057 7.6925 3.448651 32.031478 -2.871232
2007-02-19 09:14:21 51°11.092 2°44.025 7.6885 3.448651 32.031478 -2.871232
2007-02-19 09:14:26 51°11.085 2°43.994 7.6919 3.448858 32.033613 -2.871232
2007-02-19 09:14:31 51°11.079 2°43.962 7.6883 3.449065 32.036632 -2.871232
2007-02-19 09:14:36 51°11.072 2°43.93 7.6935 3.449065 32.036632 -2.871232
2007-02-19 09:14:41 51°11.066 2°43.899 7.6924 3.449169 32.037699 -2.871232
2007-02-19 09:14:46 51°11.059 2°43.867 7.6885 3.449169 32.037699 -2.871232
2007-02-19 09:14:51 51°11.052 2°43.835 7.6919 3.449272 32.037884 -2.871232
2007-02-19 09:14:56 51°11.046 2°43.804 7.6896 3.449376 32.039835 -2.871232
2007-02-19 09:15:01 51°11.039 2°43.772 7.692 3.449583 32.04197 -2.871232
2007-02-19 09:15:06 51°11.033 2°43.74 7.6917 3.449583 32.04197 -2.871232
2007-02-19 09:15:11 51°11.026 2°43.709 7.6934 3.449479 32.040019 -2.871232
2007-02-19 09:15:16 51°11.02 2°43.677 7.6907 3.449687 32.043038 -2.871232
2007-02-19 09:15:21 51°11.013 2°43.645 7.6918 3.449687 32.042154 -2.871232
2007-02-19 09:15:26 51°11.007 2°43.614 7.6879 3.44979 32.044105 -2.871232
2007-02-19 09:15:31 51°11 2°43.582 7.6903 3.44979 32.044105 -2.871232
2007-02-19 09:15:36 51°10.994 2°43.55 7.691 3.44979 32.044105 -2.871232
2007-02-19 09:15:41 51°10.987 2°43.518 7.6944 3.44979 32.044105 -2.871232
2007-02-19 09:15:46 51°10.981 2°43.487 7.6899 3.44979 32.043222 -2.871232
2007-02-19 09:15:51 51°10.975 2°43.455 7.6916 3.449894 32.044289 -2.871232
2007-02-19 09:15:56 51°10.968 2°43.423 7.6904 3.449997 32.046241 -2.871232
2007-02-19 09:16:01 51°10.962 2°43.392 7.6935 3.449997 32.046241 -2.871232
2007-02-19 09:16:06 51°10.955 2°43.36 7.6908 3.449997 32.046241 -2.871232
2007-02-19 09:16:11 51°10.949 2°43.328 7.6904 3.449997 32.046241 -2.871232
2007-02-19 09:16:16 51°10.943 2°43.296 7.6874 3.449997 32.045357 -2.871232
2007-02-19 09:16:21 51°10.936 2°43.265 7.6886 3.450101 32.047308 -2.871232
2007-02-19 09:16:26 51°10.93 2°43.233 7.6889 3.450101 32.047308 -2.871232
2007-02-19 09:16:31 51°10.923 2°43.201 7.6903 3.450204 32.047492 -2.871232
2007-02-19 09:16:36 51°10.917 2°43.169 7.6904 3.450204 32.047492 -2.871232
2007-02-19 09:16:41 51°10.911 2°43.138 7.6939 3.450308 32.04856 -2.871232
2007-02-19 09:16:45 51°10.905 2°43.112 7.6902 3.450515 32.052463 -2.871232
2007-02-19 09:16:51 51°10.898 2°43.074 7.6911 3.450515 32.053347 -2.871232
2007-02-19 09:16:56 51°10.891 2°43.043 7.6942 3.450619 32.054415 -2.871232
2007-02-19 09:17:01 51°10.885 2°43.011 7.6942 3.450722 32.055482 -2.871232
2007-02-19 09:17:05 51°10.88 2°42.986 7.6921 3.450722 32.055482 -2.871232
2007-02-19 09:17:11 51°10.872 2°42.948 7.6909 3.450722 32.054598 -2.871232
2007-02-19 09:17:16 51°10.865 2°42.916 7.6899 3.450826 32.054782 -2.871232
2007-02-19 09:17:21 51°10.859 2°42.884 7.6983 3.450929 32.05585 -2.871232
2007-02-19 09:17:26 51°10.853 2°42.853 7.6899 3.450929 32.054966 -2.871232
2007-02-19 09:17:31 51°10.846 2°42.821 7.6919 3.450929 32.054966 -2.871232
2007-02-19 09:17:36 51°10.839 2°42.789 7.6908 3.450929 32.054966 -2.871232
2007-02-19 09:17:41 51°10.833 2°42.758 7.6915 3.451033 32.056034 -2.871232
2007-02-19 09:17:46 51°10.827 2°42.726 7.6885 3.451033 32.057802 -2.871232
2007-02-19 09:17:51 51°10.82 2°42.694 7.6878 3.450929 32.054966 -2.871232
2007-02-19 09:17:56 51°10.814 2°42.662 7.6897 3.451033 32.056034 -2.871232
2007-02-19 09:18:01 51°10.808 2°42.631 7.6927 3.451033 32.056918 -2.871232
2007-02-19 09:18:06 51°10.801 2°42.599 7.6905 3.451033 32.056918 -2.871232
2007-02-19 09:18:11 51°10.795 2°42.567 7.6935 3.451033 32.056918 -2.871232
2007-02-19 09:18:16 51°10.789 2°42.535 7.6918 3.451033 32.057802 -2.871232
2007-02-19 09:18:21 51°10.782 2°42.504 7.6905 3.451033 32.058686 -2.871232
2007-02-19 09:18:26 51°10.776 2°42.472 7.69 3.451033 32.058686 -2.871232
2007-02-19 09:18:31 51°10.77 2°42.44 7.6912 3.451033 32.057802 -2.871232
2007-02-19 09:18:36 51°10.763 2°42.408 7.6899 3.451033 32.057802 -2.871232
2007-02-19 09:18:41 51°10.757 2°42.377 7.6904 3.450929 32.05585 -2.871232
2007-02-19 09:18:46 51°10.75 2°42.345 7.6906 3.450929 32.054966 -2.871232
2007-02-19 09:18:51 51°10.744 2°42.314 7.6937 3.450929 32.056734 -2.871232
2007-02-19 09:18:56 51°10.737 2°42.282 7.6929 3.450929 32.056734 -2.871232
2007-02-19 09:19:01 51°10.731 2°42.25 7.6902 3.450929 32.056734 -2.871232
2007-02-19 09:19:06 51°10.725 2°42.219 7.6897 3.450929 32.056734 -2.871232
2007-02-19 09:19:11 51°10.718 2°42.187 7.6906 3.450929 32.056734 -2.871232
2007-02-19 09:19:16 51°10.712 2°42.155 7.6881 3.450929 32.057618 -2.871232
2007-02-19 09:19:21 51°10.706 2°42.123 7.6898 3.450826 32.055666 -2.871232
2007-02-19 09:19:26 51°10.699 2°42.092 7.6948 3.450929 32.056734 -2.871232
2007-02-19 09:19:31 51°10.693 2°42.06 7.6916 3.451033 32.057802 -2.871232
2007-02-19 09:19:36 51°10.686 2°42.029 7.6943 3.451033 32.057802 -2.871232
2007-02-19 09:19:41 51°10.68 2°41.997 7.6916 3.451033 32.058686 -2.871232
2007-02-19 09:19:46 51°10.673 2°41.966 7.698 3.451033 32.057802 -2.871232
2007-02-19 09:19:51 51°10.667 2°41.936 7.693 3.451033 32.058686 -2.871232
2007-02-19 09:19:56 51°10.661 2°41.907 7.692 3.451033 32.057802 -2.871232
2007-02-19 09:20:01 51°10.656 2°41.879 7.7079 3.451033 32.056918 -2.871232
2007-02-19 09:20:05 51°10.654 2°41.857 7.7204 3.451033 32.056918 -2.871232
2007-02-19 09:20:11 51°10.654 2°41.827 7.7036 3.451136 32.057986 -2.871232
2007-02-19 09:20:16 51°10.656 2°41.805 7.7043 3.45124 32.059053 -2.871232
2007-02-19 09:20:21 51°10.659 2°41.784 7.7086 3.45124 32.057286 -2.871232
2007-02-19 09:20:25 51°10.662 2°41.769 7.6994 3.451447 32.05677 -2.871232
2007-02-19 09:20:31 51°10.668 2°41.748 7.6985 3.451861 32.052204 -2.871232
2007-02-19 09:20:36 51°10.673 2°41.734 7.6999 3.451861 32.052204 -2.871232
2007-02-19 09:20:41 51°10.678 2°41.721 7.6982 3.451757 32.041424 -2.871232
2007-02-19 09:20:46 51°10.683 2°41.709 7.703 3.450825 32.033586 -2.871232
2007-02-19 09:20:51 51°10.689 2°41.7 7.696 3.448858 32.013313 -2.871232
2007-02-19 09:20:56 51°10.695 2°41.691 7.6946 3.449272 32.021992 -2.871232
2007-02-19 09:21:01 51°10.7 2°41.684 7.6979 3.44979 32.031741 -2.871232
2007-02-19 09:21:06 51°10.706 2°41.677 7.6957 3.44979 32.031741 -2.871232
2007-02-19 09:21:11 51°10.711 2°41.672 7.6916 3.449479 32.029422 -2.871232
2007-02-19 09:21:16 51°10.716 2°41.667 7.6875 3.449479 32.029422 -2.871232
2007-02-19 09:21:21 51°10.722 2°41.664 7.6853 3.449479 32.031188 -2.871232
2007-02-19 09:21:26 51°10.727 2°41.66 7.6826 3.449687 32.035088 -2.871232
2007-02-19 09:21:31 51°10.732 2°41.657 7.6893 3.449687 32.036855 -2.871232
2007-02-19 09:21:36 51°10.737 2°41.655 7.6844 3.449687 32.036855 -2.871232
2007-02-19 09:21:41 51°10.742 2°41.653 7.6831 3.449583 32.037553 -2.871232
2007-02-19 09:21:46 51°10.747 2°41.652 7.6827 3.449479 32.038252 -2.871232
2007-02-19 09:21:51 51°10.752 2°41.651 7.6837 3.449272 32.03965 -2.871232
2007-02-19 09:21:56 51°10.756 2°41.65 7.6826 3.448858 32.037146 -2.871232
2007-02-19 09:22:01 51°10.761 2°41.65 7.6799 3.448444 32.033759 -2.871232
2007-02-19 09:22:06 51°10.766 2°41.651 7.6878 3.448444 32.033759 -2.871232
2007-02-19 09:22:11 51°10.771 2°41.653 7.6844 3.448237 32.032506 -2.871232
2007-02-19 09:22:16 51°10.777 2°41.656 7.6775 3.447823 32.029119 -2.871232
2007-02-19 09:22:21 51°10.784 2°41.66 7.6772 3.447409 32.025731 -2.871232
2007-02-19 09:22:26 51°10.79 2°41.665 7.6779 3.446994 32.022343 -2.871232
2007-02-19 09:22:31 51°10.796 2°41.671 7.6719 3.446477 32.017004 -2.871232
2007-02-19 09:22:36 51°10.802 2°41.679 7.6778 3.446477 32.017004 -2.871232
2007-02-19 09:22:41 51°10.807 2°41.688 7.6676 3.446062 32.01185 -2.871232
2007-02-19 09:22:46 51°10.813 2°41.697 7.6639 3.445441 32.004561 -2.871232
2007-02-19 09:22:51 51°10.819 2°41.707 7.6642 3.44482 32.000803 -2.871232
2007-02-19 09:22:56 51°10.825 2°41.717 7.6614 3.443991 31.994026 -2.871232
2007-02-19 09:23:01 51°10.832 2°41.726 7.6629 3.443267 31.988317 -2.871232
2007-02-19 09:23:06 51°10.839 2°41.734 7.6569 3.443267 31.988317 -2.871232
2007-02-19 09:23:11 51°10.847 2°41.741 7.656 3.442335 31.980471 -2.871232
2007-02-19 09:23:16 51°10.854 2°41.745 7.6564 3.441092 31.972068 -2.871232
2007-02-19 09:23:21 51°10.862 2°41.749 7.6552 3.43985 31.962781 -2.871232
2007-02-19 09:23:26 51°10.869 2°41.753 7.6557 3.438918 31.955815 -2.871232
2007-02-19 09:23:31 51°10.877 2°41.756 7.659 3.438089 31.949916 -2.871232
2007-02-19 09:23:36 51°10.884 2°41.76 7.6581 3.438089 31.949916 -2.871232
2007-02-19 09:23:41 51°10.891 2°41.764 7.6555 3.437261 31.944898 -2.871232
2007-02-19 09:23:45 51°10.896 2°41.767 7.6597 3.436225 31.936862 -2.871232
2007-02-19 09:23:51 51°10.903 2°41.774 7.6534 3.435604 31.930453 -2.871232
2007-02-19 09:23:56 51°10.908 2°41.78 7.6642 3.434879 31.923858 -2.871232
2007-02-19 09:24:01 51°10.913 2°41.786 7.6538 3.434258 31.915688 -2.871232
2007-02-19 09:24:06 51°10.917 2°41.793 7.6543 3.434258 31.915688 -2.871232
2007-02-19 09:24:11 51°10.921 2°41.8 7.6545 3.43374 31.908587 -2.871232
2007-02-19 09:24:16 51°10.925 2°41.807 7.6473 3.433223 31.903248 -2.871232
2007-02-19 09:24:21 51°10.929 2°41.814 7.6477 3.432808 31.898096 -2.871232
2007-02-19 09:24:26 51°10.932 2°41.821 7.6482 3.432291 31.892757 -2.871232
2007-02-19 09:24:31 51°10.936 2°41.828 7.6488 3.431669 31.88811 -2.871232
2007-02-19 09:24:36 51°10.94 2°41.834 7.6468 3.431669 31.88811 -2.871232
2007-02-19 09:24:41 51°10.944 2°41.84 7.6443 3.431152 31.883651 -2.871232
2007-02-19 09:24:45 51°10.948 2°41.845 7.6484 3.430841 31.881327 -2.871232
2007-02-19 09:24:51 51°10.953 2°41.851 7.6492 3.43022 31.87844 -2.871232
2007-02-19 09:24:56 51°10.958 2°41.856 7.6491 3.429909 31.876996 -2.871232
2007-02-19 09:25:01 51°10.963 2°41.861 7.647 3.429702 31.87574 -2.871232
2007-02-19 09:25:05 51°10.967 2°41.864 7.6487 3.429702 31.87574 -2.871232
2007-02-19 09:25:11 51°10.973 2°41.87 7.6482 3.429495 31.875363 -2.871232
2007-02-19 09:25:16 51°10.978 2°41.874 7.6473 3.429391 31.875175 -2.871232
2007-02-19 09:25:21 51°10.983 2°41.879 7.6492 3.429391 31.875175 -2.871232
2007-02-19 09:25:26 51°10.987 2°41.884 7.6479 3.429391 31.875175 -2.871232
2007-02-19 09:25:31 51°10.992 2°41.89 7.6534 3.429495 31.876243 -2.871232
2007-02-19 09:25:36 51°10.996 2°41.895 7.6548 3.429495 31.876243 -2.871232
2007-02-19 09:25:41 51°11.001 2°41.901 7.6549 3.429495 31.876243 -2.871232
2007-02-19 09:25:46 51°11.004 2°41.907 7.6525 3.429599 31.876431 -2.871232
2007-02-19 09:25:51 51°11.008 2°41.914 7.6547 3.429806 31.877688 -2.871232
2007-02-19 09:25:56 51°11.012 2°41.92 7.6508 3.429909 31.878756 -2.871232
2007-02-19 09:26:01 51°11.015 2°41.927 7.6519 3.430116 31.879132 -2.871232
2007-02-19 09:26:06 51°11.019 2°41.933 7.6497 3.430116 31.879132 -2.871232
2007-02-19 09:26:11 51°11.022 2°41.94 7.6572 3.43053 31.880764 -2.871232
2007-02-19 09:26:16 51°11.026 2°41.946 7.6563 3.430945 31.885035 -2.871232
2007-02-19 09:26:21 51°11.03 2°41.953 7.6501 3.431359 31.889307 -2.871232
2007-02-19 09:26:26 51°11.034 2°41.959 7.6497 3.431877 31.895527 -2.871232
2007-02-19 09:26:31 51°11.038 2°41.965 7.6533 3.432394 31.902628 -2.871232
2007-02-19 09:26:36 51°11.042 2°41.971 7.6512 3.432394 31.902628 -2.871232
2007-02-19 09:26:41 51°11.046 2°41.977 7.6544 3.433119 31.910105 -2.871232
2007-02-19 09:26:46 51°11.051 2°41.983 7.6581 3.433947 31.916888 -2.871232
2007-02-19 09:26:51 51°11.055 2°41.989 7.6567 3.434879 31.926502 -2.871232
2007-02-19 09:26:56 51°11.058 2°41.995 7.6574 3.436018 31.940015 -2.871232
2007-02-19 09:27:01 51°11.062 2°42.002 7.6563 3.437054 31.950698 -2.871232
2007-02-19 09:27:05 51°11.065 2°42.007 7.6592 3.437054 31.950698 -2.871232
2007-02-19 09:27:11 51°11.069 2°42.015 7.6656 3.438193 31.96245 -2.871232
2007-02-19 09:27:16 51°11.072 2°42.021 7.6635 3.439125 31.9703 -2.871232
2007-02-19 09:27:21 51°11.075 2°42.027 7.6588 3.440057 31.978151 -2.871232
2007-02-19 09:27:26 51°11.078 2°42.034 7.663 3.440885 31.985815 -2.871232
2007-02-19 09:27:31 51°11.081 2°42.039 7.6615 3.44161 31.992411 -2.871232
2007-02-19 09:27:36 51°11.084 2°42.045 7.6607 3.44161 31.992411 -2.871232
2007-02-19 09:27:41 51°11.087 2°42.05 7.6608 3.442438 32.000075 -2.871232
2007-02-19 09:27:46 51°11.09 2°42.054 7.6649 3.44306 32.003835 -2.871232
2007-02-19 09:27:51 51°11.093 2°42.059 7.6621 3.443888 32.012382 -2.871232
2007-02-19 09:27:56 51°11.097 2°42.063 7.6629 3.444406 32.017724 -2.871232
2007-02-19 09:28:01 51°11.1 2°42.066 7.6616 3.445131 32.025203 -2.871232
2007-02-19 09:28:06 51°11.103 2°42.07 7.6638 3.445131 32.025203 -2.871232
2007-02-19 09:28:11 51°11.106 2°42.072 7.6636 3.445648 32.030545 -2.871232
2007-02-19 09:28:16 51°11.109 2°42.075 7.6629 3.44627 32.036956 -2.871232
2007-02-19 09:28:21 51°11.111 2°42.075 7.6633 3.446684 32.040346 -2.871232
2007-02-19 09:28:26 51°11.112 2°42.076 7.6635 3.447202 32.046573 -2.871232
2007-02-19 09:28:31 51°11.113 2°42.075 7.6631 3.447409 32.047825 -2.871232
2007-02-19 09:28:36 51°11.113 2°42.073 7.6608 3.447409 32.047825 -2.871232
2007-02-19 09:28:41 51°11.114 2°42.072 7.6582 3.447512 32.048894 -2.871232
2007-02-19 09:28:46 51°11.114 2°42.071 7.6607 3.447719 32.050146 -2.871232
2007-02-19 09:28:51 51°11.114 2°42.069 7.6605 3.447409 32.047825 -2.871232
2007-02-19 09:28:56 51°11.115 2°42.068 7.6603 3.447305 32.046757 -2.871232
2007-02-19 09:29:01 51°11.115 2°42.066 7.6605 3.446891 32.042483 -2.871232
2007-02-19 09:29:06 51°11.115 2°42.065 7.6568 3.446891 32.042483 -2.871232
2007-02-19 09:29:11 51°11.115 2°42.063 7.6605 3.446477 32.039093 -2.871232
2007-02-19 09:29:16 51°11.115 2°42.062 7.6599 3.446063 32.035703 -2.871232
2007-02-19 09:29:21 51°11.115 2°42.06 7.6648 3.445752 32.032498 -2.871232
2007-02-19 09:29:25 51°11.115 2°42.059 7.6588 3.445545 32.030361 -2.871232
2007-02-19 09:29:31 51°11.116 2°42.057 7.6657 3.445234 32.027155 -2.871232
2007-02-19 09:29:36 51°11.116 2°42.055 7.6613 3.445234 32.027155 -2.871232
2007-02-19 09:29:41 51°11.116 2°42.053 7.6633 3.445027 32.025018 -2.871232
2007-02-19 09:29:46 51°11.117 2°42.051 7.6664 3.444717 32.021813 -2.871232
2007-02-19 09:29:51 51°11.117 2°42.049 7.6626 3.44482 32.022881 -2.871232
2007-02-19 09:29:56 51°11.117 2°42.047 7.6645 3.444924 32.02395 -2.871232
2007-02-19 09:30:01 51°11.117 2°42.045 7.6701 3.445131 32.026087 -2.871232
2007-02-19 09:30:06 51°11.118 2°42.043 7.6634 3.445131 32.026087 -2.871232
2007-02-19 09:30:11 51°11.118 2°42.041 7.6663 3.445338 32.026456 -2.871232
2007-02-19 09:30:15 51°11.118 2°42.039 7.6614 3.445441 32.02664 -2.871232
2007-02-19 09:30:21 51°11.118 2°42.037 7.6585 3.445856 32.030914 -2.871232
2007-02-19 09:30:26 51°11.119 2°42.035 7.6639 3.446166 32.033235 -2.871232
2007-02-19 09:30:31 51°11.119 2°42.033 7.6643 3.44627 32.03342 -2.871232
2007-02-19 09:30:36 51°11.119 2°42.031 7.6622 3.44627 32.03342 -2.871232
2007-02-19 09:30:41 51°11.12 2°42.029 7.6607 3.44627 32.034304 -2.871232
2007-02-19 09:30:46 51°11.12 2°42.027 7.6633 3.446166 32.034119 -2.871232
2007-02-19 09:30:51 51°11.12 2°42.025 7.663 3.446063 32.034819 -2.871232
2007-02-19 09:30:56 51°11.121 2°42.023 7.6606 3.446063 32.034819 -2.871232
2007-02-19 09:31:01 51°11.121 2°42.021 7.6616 3.446063 32.033935 -2.871232
2007-02-19 09:31:06 51°11.121 2°42.019 7.6602 3.446063 32.033935 -2.871232
2007-02-19 09:31:11 51°11.122 2°42.017 7.6614 3.445959 32.032866 -2.871232
2007-02-19 09:31:16 51°11.122 2°42.015 7.6653 3.445856 32.032682 -2.871232
2007-02-19 09:31:21 51°11.123 2°42.012 7.6626 3.445856 32.032682 -2.871232
2007-02-19 09:31:26 51°11.123 2°42.01 7.6634 3.445856 32.032682 -2.871232
2007-02-19 09:31:31 51°11.123 2°42.008 7.6641 3.445856 32.032682 -2.871232
2007-02-19 09:31:36 51°11.123 2°42.006 7.6649 3.445856 32.032682 -2.871232
2007-02-19 09:31:41 51°11.124 2°42.004 7.6657 3.445959 32.03375 -2.871232
2007-02-19 09:31:45 51°11.124 2°42.003 7.6663 3.446166 32.035003 -2.871232
2007-02-19 09:31:51 51°11.124 2°42 7.6691 3.446373 32.036256 -2.871232
2007-02-19 09:31:56 51°11.124 2°41.998 7.6692 3.44658 32.039277 -2.871232
2007-02-19 09:32:01 51°11.125 2°41.996 7.6687 3.446891 32.042483 -2.871232
2007-02-19 09:32:05 51°11.125 2°41.995 7.668 3.446891 32.042483 -2.871232
2007-02-19 09:32:11 51°11.125 2°41.992 7.6669 3.447409 32.046057 -2.871232
2007-02-19 09:32:16 51°11.125 2°41.99 7.6678 3.447927 32.050514 -2.871232
2007-02-19 09:32:21 51°11.126 2°41.988 7.666 3.448444 32.054972 -2.871232
2007-02-19 09:32:26 51°11.126 2°41.987 7.6692 3.448859 32.059246 -2.871232
2007-02-19 09:32:31 51°11.126 2°41.985 7.6658 3.449169 32.061567 -2.871232
2007-02-19 09:32:36 51°11.126 2°41.983 7.667 3.449169 32.061567 -2.871232
2007-02-19 09:32:41 51°11.126 2°41.981 7.6652 3.449583 32.064956 -2.871232
2007-02-19 09:32:46 51°11.126 2°41.979 7.6689 3.449894 32.068161 -2.871232
2007-02-19 09:32:51 51°11.127 2°41.977 7.6681 3.449998 32.070115 -2.871232
2007-02-19 09:32:56 51°11.127 2°41.976 7.6675 3.450205 32.073137 -2.871232
2007-02-19 09:33:01 51°11.127 2°41.974 7.6692 3.450308 32.074205 -2.871232
2007-02-19 09:33:06 51°11.127 2°41.972 7.6683 3.450308 32.074205 -2.871232
2007-02-19 09:33:11 51°11.127 2°41.97 7.6693 3.450308 32.074205 -2.871232
2007-02-19 09:33:16 51°11.127 2°41.968 7.6703 3.450412 32.075274 -2.871232
2007-02-19 09:33:21 51°11.127 2°41.966 7.6721 3.450515 32.075457 -2.871232
2007-02-19 09:33:26 51°11.127 2°41.964 7.6707 3.44979 32.067978 -2.871232
2007-02-19 09:33:31 51°11.127 2°41.962 7.6721 3.450412 32.073504 -2.871232
2007-02-19 09:33:36 51°11.127 2°41.961 7.6712 3.450412 32.073504 -2.871232
2007-02-19 09:33:41 51°11.127 2°41.959 7.6714 3.451033 32.079915 -2.871232
2007-02-19 09:33:45 51°11.127 2°41.958 7.6725 3.451344 32.08312 -2.871232
2007-02-19 09:33:51 51°11.127 2°41.956 7.6725 3.451551 32.083487 -2.871232
2007-02-19 09:33:56 51°11.127 2°41.954 7.6718 3.451861 32.086693 -2.871232
2007-02-19 09:34:01 51°11.127 2°41.952 7.674 3.452069 32.08883 -2.871232
2007-02-19 09:34:05 51°11.127 2°41.951 7.6708 3.452069 32.08883 -2.871232
2007-02-19 09:34:11 51°11.127 2°41.949 7.6714 3.452172 32.089898 -2.871232
2007-02-19 09:34:16 51°11.127 2°41.947 7.6716 3.452379 32.09115 -2.871232
2007-02-19 09:34:21 51°11.127 2°41.945 7.6719 3.45269 32.09347 -2.871232
2007-02-19 09:34:26 51°11.126 2°41.943 7.6731 3.453001 32.096675 -2.871232
2007-02-19 09:34:31 51°11.126 2°41.942 7.675 3.453208 32.097927 -2.871232
2007-02-19 09:34:36 51°11.126 2°41.94 7.6768 3.453208 32.097927 -2.871232
2007-02-19 09:34:41 51°11.126 2°41.939 7.6745 3.453415 32.100949 -2.871232
2007-02-19 09:34:46 51°11.126 2°41.937 7.6754 3.453518 32.102904 -2.871232
2007-02-19 09:34:51 51°11.125 2°41.935 7.6759 3.453622 32.103972 -2.871232
2007-02-19 09:34:56 51°11.125 2°41.934 7.6756 3.453829 32.105223 -2.871232
2007-02-19 09:35:01 51°11.126 2°41.933 7.6758 3.45414 32.107543 -2.871232
2007-02-19 09:35:06 51°11.126 2°41.933 7.6773 3.45414 32.107543 -2.871232
2007-02-19 09:35:11 51°11.127 2°41.933 7.6782 3.45445 32.109863 -2.871232
2007-02-19 09:35:16 51°11.128 2°41.933 7.6798 3.454554 32.110932 -2.871232
2007-02-19 09:35:21 51°11.13 2°41.934 7.6765 3.454864 32.113251 -2.871232
2007-02-19 09:35:26 51°11.132 2°41.934 7.679 3.454968 32.11432 -2.871232
2007-02-19 09:35:31 51°11.134 2°41.936 7.6778 3.455382 32.118594 -2.871232
2007-02-19 09:35:36 51°11.138 2°41.936 7.6805 3.455382 32.118594 -2.871232
2007-02-19 09:35:41 51°11.142 2°41.936 7.6768 3.455693 32.120913 -2.871232
2007-02-19 09:35:46 51°11.147 2°41.935 7.6793 3.456004 32.123233 -2.871232
2007-02-19 09:35:51 51°11.152 2°41.933 7.6797 3.456211 32.12537 -2.871232
2007-02-19 09:35:56 51°11.157 2°41.929 7.6797 3.456521 32.128575 -2.871232
2007-02-19 09:36:01 51°11.163 2°41.924 7.6821 3.456728 32.130712 -2.871232
2007-02-19 09:36:05 51°11.167 2°41.918 7.6826 3.456728 32.130712 -2.871232
2007-02-19 09:36:11 51°11.172 2°41.908 7.6817 3.456935 32.13285 -2.871232
2007-02-19 09:36:16 51°11.177 2°41.898 7.6842 3.457246 32.137828 -2.871232
2007-02-19 09:36:21 51°11.18 2°41.886 7.6846 3.457764 32.143172 -2.871232
2007-02-19 09:36:25 51°11.181 2°41.876 7.6868 3.458282 32.148515 -2.871232
2007-02-19 09:36:31 51°11.183 2°41.86 7.6852 3.458903 32.154927 -2.871232
2007-02-19 09:36:36 51°11.183 2°41.846 7.6894 3.458903 32.154927 -2.871232
2007-02-19 09:36:41 51°11.182 2°41.832 7.6887 3.459731 32.16259 -2.871232
2007-02-19 09:36:46 51°11.181 2°41.816 7.6944 3.46056 32.170252 -2.871232
2007-02-19 09:36:51 51°11.179 2°41.8 7.6903 3.461285 32.176846 -2.871232
2007-02-19 09:36:56 51°11.177 2°41.782 7.6921 3.462113 32.184508 -2.871232
2007-02-19 09:37:01 51°11.175 2°41.764 7.6937 3.462838 32.191989 -2.871232
2007-02-19 09:37:06 51°11.173 2°41.744 7.6982 3.462838 32.191989 -2.871232
2007-02-19 09:37:11 51°11.169 2°41.724 7.7007 3.463563 32.197695 -2.871232
2007-02-19 09:37:16 51°11.166 2°41.703 7.6982 3.464184 32.201443 -2.871232
2007-02-19 09:37:21 51°11.161 2°41.68 7.6932 3.464909 32.206259 -2.871232
2007-02-19 09:37:26 51°11.156 2°41.657 7.6929 3.465634 32.212851 -2.871232
2007-02-19 09:37:31 51°11.151 2°41.632 7.694 3.466152 32.216418 -2.871232
2007-02-19 09:37:36 51°11.144 2°41.607 7.6935 3.466152 32.216418 -2.871232
2007-02-19 09:37:41 51°11.137 2°41.58 7.6973 3.466669 32.219984 -2.871232
2007-02-19 09:37:46 51°11.13 2°41.553 7.6927 3.467187 32.22355 -2.871232
2007-02-19 09:37:51 51°11.122 2°41.526 7.6922 3.467601 32.229602 -2.871232
2007-02-19 09:37:56 51°11.114 2°41.498 7.699 3.467809 32.232628 -2.871232
2007-02-19 09:38:01 51°11.106 2°41.47 7.7001 3.468119 32.235834 -2.871232
2007-02-19 09:38:06 51°11.098 2°41.442 7.6979 3.468119 32.235834 -2.871232
2007-02-19 09:38:11 51°11.089 2°41.413 7.6965 3.468326 32.237971 -2.871232
2007-02-19 09:38:16 51°11.081 2°41.385 7.6963 3.46843 32.23904 -2.871232
2007-02-19 09:38:21 51°11.073 2°41.356 7.6986 3.468741 32.242246 -2.871232
2007-02-19 09:38:26 51°11.064 2°41.327 7.6978 3.468844 32.241537 -2.871232
2007-02-19 09:38:31 51°11.056 2°41.298 7.6956 3.469051 32.241896 -2.871232
2007-02-19 09:38:36 51°11.048 2°41.268 7.6956 3.469051 32.241896 -2.871232
2007-02-19 09:38:41 51°11.039 2°41.239 7.7002 3.469155 32.242964 -2.871232
2007-02-19 09:38:46 51°11.031 2°41.21 7.6977 3.469258 32.244033 -2.871232
2007-02-19 09:38:51 51°11.023 2°41.181 7.6994 3.469362 32.244213 -2.871232
2007-02-19 09:38:56 51°11.015 2°41.151 7.6969 3.469465 32.245281 -2.871232
2007-02-19 09:39:01 51°11.006 2°41.122 7.6994 3.469465 32.24617 -2.871232
2007-02-19 09:39:06 51°10.998 2°41.092 7.6987 3.469465 32.24617 -2.871232
2007-02-19 09:39:11 51°10.99 2°41.063 7.6988 3.469362 32.245102 -2.871232
2007-02-19 09:39:16 51°10.982 2°41.033 7.7008 3.469465 32.245281 -2.871232
2007-02-19 09:39:21 51°10.973 2°41.004 7.7011 3.469362 32.243324 -2.871232
2007-02-19 09:39:26 51°10.965 2°40.974 7.6999 3.469362 32.243324 -2.871232
2007-02-19 09:39:31 51°10.957 2°40.945 7.702 3.469362 32.243324 -2.871232
2007-02-19 09:39:36 51°10.948 2°40.915 7.7021 3.469362 32.243324 -2.871232
2007-02-19 09:39:41 51°10.941 2°40.885 7.7069 3.469362 32.243324 -2.871232
2007-02-19 09:39:46 51°10.932 2°40.856 7.7018 3.469362 32.242435 -2.871232
2007-02-19 09:39:51 51°10.924 2°40.826 7.7044 3.469258 32.240477 -2.871232
2007-02-19 09:39:56 51°10.916 2°40.797 7.7003 3.469258 32.240477 -2.871232
2007-02-19 09:40:01 51°10.908 2°40.767 7.7013 3.469258 32.239588 -2.871232
2007-02-19 09:40:06 51°10.899 2°40.737 7.7047 3.469258 32.239588 -2.871232
2007-02-19 09:40:11 51°10.891 2°40.707 7.7038 3.469258 32.2387 -2.871232
2007-02-19 09:40:16 51°10.884 2°40.677 7.7073 3.469155 32.236743 -2.871232
2007-02-19 09:40:21 51°10.876 2°40.647 7.7074 3.469155 32.236743 -2.871232
2007-02-19 09:40:26 51°10.869 2°40.617 7.7066 3.469258 32.237811 -2.871232
2007-02-19 09:40:31 51°10.863 2°40.586 7.7074 3.469155 32.237631 -2.871232
2007-02-19 09:40:36 51°10.856 2°40.555 7.7159 3.469155 32.237631 -2.871232
2007-02-19 09:40:41 51°10.85 2°40.524 7.7058 3.469155 32.236743 -2.871232
2007-02-19 09:40:46 51°10.844 2°40.493 7.7108 3.469155 32.234965 -2.871232
2007-02-19 09:40:51 51°10.839 2°40.462 7.7061 3.469155 32.233188 -2.871232
2007-02-19 09:40:56 51°10.833 2°40.431 7.7127 3.469155 32.2323 -2.871232
2007-02-19 09:41:01 51°10.828 2°40.399 7.7053 3.469155 32.2323 -2.871232
2007-02-19 09:41:06 51°10.823 2°40.368 7.7133 3.469155 32.2323 -2.871232
2007-02-19 09:41:11 51°10.818 2°40.336 7.7076 3.469051 32.228567 -2.871232
2007-02-19 09:41:16 51°10.813 2°40.305 7.7105 3.469155 32.229635 -2.871232
2007-02-19 09:41:21 51°10.809 2°40.273 7.7078 3.469155 32.229635 -2.871232
2007-02-19 09:41:26 51°10.804 2°40.241 7.7078 3.469155 32.229635 -2.871232
2007-02-19 09:41:31 51°10.799 2°40.21 7.709 3.469258 32.231591 -2.871232
2007-02-19 09:41:36 51°10.795 2°40.178 7.7109 3.469258 32.231591 -2.871232
2007-02-19 09:41:41 51°10.79 2°40.146 7.713 3.469258 32.231591 -2.871232
2007-02-19 09:41:46 51°10.786 2°40.115 7.7105 3.469258 32.23248 -2.871232
2007-02-19 09:41:51 51°10.781 2°40.083 7.7176 3.469362 32.233548 -2.871232
2007-02-19 09:41:56 51°10.776 2°40.051 7.7144 3.469362 32.234436 -2.871232
2007-02-19 09:42:01 51°10.772 2°40.02 7.7168 3.469362 32.233548 -2.871232
2007-02-19 09:42:06 51°10.767 2°39.988 7.7126 3.469362 32.233548 -2.871232
2007-02-19 09:42:11 51°10.762 2°39.956 7.7177 3.469465 32.233728 -2.871232
2007-02-19 09:42:16 51°10.757 2°39.925 7.719 3.469465 32.233728 -2.871232
2007-02-19 09:42:21 51°10.752 2°39.893 7.7192 3.469465 32.231951 -2.871232
2007-02-19 09:42:26 51°10.748 2°39.861 7.7151 3.469569 32.231243 -2.871232
2007-02-19 09:42:31 51°10.743 2°39.829 7.7186 3.469569 32.230354 -2.871232
2007-02-19 09:42:36 51°10.738 2°39.798 7.7165 3.469569 32.230354 -2.871232
2007-02-19 09:42:41 51°10.733 2°39.766 7.7176 3.469776 32.233379 -2.871232
2007-02-19 09:42:46 51°10.728 2°39.734 7.7163 3.469879 32.23267 -2.871232
2007-02-19 09:42:51 51°10.723 2°39.702 7.7152 3.470087 32.23303 -2.871232
2007-02-19 09:42:56 51°10.718 2°39.67 7.7162 3.470294 32.235166 -2.871232
2007-02-19 09:43:01 51°10.713 2°39.639 7.7266 3.47019 32.234098 -2.871232
2007-02-19 09:43:06 51°10.708 2°39.607 7.7206 3.47019 32.234098 -2.871232
2007-02-19 09:43:11 51°10.703 2°39.575 7.7195 3.470397 32.236234 -2.871232
2007-02-19 09:43:16 51°10.698 2°39.543 7.7236 3.470501 32.236414 -2.871232
2007-02-19 09:43:21 51°10.693 2°39.512 7.7213 3.470604 32.23837 -2.871232
2007-02-19 09:43:26 51°10.689 2°39.48 7.7271 3.470604 32.23837 -2.871232
2007-02-19 09:43:31 51°10.684 2°39.448 7.7225 3.470397 32.234458 -2.871232
2007-02-19 09:43:36 51°10.679 2°39.416 7.7271 3.470397 32.234458 -2.871232
2007-02-19 09:43:41 51°10.674 2°39.384 7.7251 3.469465 32.223958 -2.871232
2007-02-19 09:43:46 51°10.669 2°39.352 7.7242 3.470708 32.235885 -2.871232
2007-02-19 09:43:51 51°10.664 2°39.32 7.7317 3.471018 32.238201 -2.871232
2007-02-19 09:43:56 51°10.659 2°39.288 7.7286 3.471018 32.237313 -2.871232
2007-02-19 09:44:01 51°10.654 2°39.257 7.727 3.471122 32.237492 -2.871232
2007-02-19 09:44:06 51°10.649 2°39.225 7.7236 3.471122 32.237492 -2.871232
2007-02-19 09:44:11 51°10.644 2°39.193 7.7243 3.471226 32.237672 -2.871232
2007-02-19 09:44:16 51°10.639 2°39.161 7.7272 3.47164 32.241055 -2.871232
2007-02-19 09:44:21 51°10.634 2°39.129 7.729 3.47164 32.241055 -2.871232
2007-02-19 09:44:26 51°10.63 2°39.097 7.7326 3.47164 32.240167 -2.871232
2007-02-19 09:44:31 51°10.625 2°39.065 7.7271 3.47195 32.24337 -2.871232
2007-02-19 09:44:36 51°10.62 2°39.033 7.7241 3.47195 32.24337 -2.871232
2007-02-19 09:44:41 51°10.615 2°39.001 7.7264 3.472261 32.247462 -2.871232
2007-02-19 09:44:46 51°10.61 2°38.97 7.7296 3.472468 32.249598 -2.871232
2007-02-19 09:44:51 51°10.605 2°38.938 7.7322 3.472572 32.248889 -2.871232
2007-02-19 09:44:56 51°10.601 2°38.906 7.7307 3.472675 32.24818 -2.871232
2007-02-19 09:45:01 51°10.596 2°38.874 7.7372 3.473193 32.254408 -2.871232
2007-02-19 09:45:06 51°10.591 2°38.843 7.734 3.473193 32.254408 -2.871232
2007-02-19 09:45:11 51°10.586 2°38.811 7.7322 3.473711 32.260635 -2.871232
2007-02-19 09:45:16 51°10.582 2°38.779 7.7357 3.473711 32.260635 -2.871232
2007-02-19 09:45:21 51°10.577 2°38.748 7.7348 3.473607 32.25779 -2.871232
2007-02-19 09:45:26 51°10.572 2°38.716 7.7365 3.473607 32.256902 -2.871232
2007-02-19 09:45:31 51°10.567 2°38.684 7.7358 3.473504 32.254057 -2.871232
2007-02-19 09:45:36 51°10.563 2°38.652 7.74 3.473504 32.254057 -2.871232
2007-02-19 09:45:41 51°10.558 2°38.621 7.7343 3.473607 32.254236 -2.871232
2007-02-19 09:45:46 51°10.554 2°38.589 7.7392 3.4734 32.251213 -2.871232
2007-02-19 09:45:51 51°10.549 2°38.557 7.7406 3.473193 32.249078 -2.871232
2007-02-19 09:45:56 51°10.545 2°38.526 7.7404 3.473193 32.248189 -2.871232
2007-02-19 09:46:01 51°10.54 2°38.494 7.7415 3.473089 32.246234 -2.871232
2007-02-19 09:46:06 51°10.536 2°38.463 7.7391 3.473089 32.246234 -2.871232
2007-02-19 09:46:11 51°10.531 2°38.431 7.7392 3.472882 32.243211 -2.871232
2007-02-19 09:46:16 51°10.527 2°38.4 7.739 3.472986 32.244278 -2.871232
2007-02-19 09:46:21 51°10.522 2°38.368 7.7402 3.472986 32.24339 -2.871232
2007-02-19 09:46:26 51°10.517 2°38.337 7.7429 3.472986 32.242502 -2.871232
2007-02-19 09:46:31 51°10.512 2°38.305 7.7448 3.472882 32.240547 -2.871232
2007-02-19 09:46:36 51°10.507 2°38.274 7.741 3.472882 32.240547 -2.871232
2007-02-19 09:46:41 51°10.503 2°38.243 7.7441 3.472986 32.242502 -2.871232
2007-02-19 09:46:46 51°10.498 2°38.212 7.7433 3.473193 32.244637 -2.871232
2007-02-19 09:46:51 51°10.494 2°38.18 7.7418 3.472779 32.23948 -2.871232
2007-02-19 09:46:56 51°10.49 2°38.149 7.746 3.472882 32.239659 -2.871232
2007-02-19 09:47:01 51°10.486 2°38.118 7.7462 3.472675 32.236637 -2.871232
2007-02-19 09:47:06 51°10.482 2°38.086 7.7442 3.472675 32.236637 -2.871232
2007-02-19 09:47:11 51°10.479 2°38.055 7.7492 3.472468 32.234502 -2.871232
2007-02-19 09:47:16 51°10.475 2°38.024 7.7433 3.472364 32.233435 -2.871232
2007-02-19 09:47:21 51°10.471 2°37.992 7.743 3.472157 32.230412 -2.871232
2007-02-19 09:47:26 51°10.468 2°37.961 7.747 3.471743 32.225256 -2.871232
2007-02-19 09:47:31 51°10.464 2°37.93 7.7452 3.471018 32.216898 -2.871232
2007-02-19 09:47:36 51°10.461 2°37.898 7.7476 3.471018 32.216898 -2.871232
2007-02-19 09:47:41 51°10.458 2°37.867 7.7454 3.470397 32.209608 -2.871232
2007-02-19 09:47:46 51°10.455 2°37.835 7.7403 3.469361 32.198051 -2.871232
2007-02-19 09:47:51 51°10.453 2°37.804 7.7424 3.468844 32.195374 -2.871232
2007-02-19 09:47:56 51°10.45 2°37.773 7.7404 3.468326 32.189153 -2.871232
2007-02-19 09:48:01 51°10.448 2°37.741 7.7416 3.467187 32.176529 -2.871232
2007-02-19 09:48:05 51°10.446 2°37.716 7.7407 3.467187 32.176529 -2.871232
2007-02-19 09:48:11 51°10.443 2°37.679 7.744 3.466669 32.170309 -2.871232
2007-02-19 09:48:16 51°10.441 2°37.647 7.7399 3.466151 32.166745 -2.871232
2007-02-19 09:48:21 51°10.438 2°37.616 7.7469 3.46584 32.165316 -2.871232
2007-02-19 09:48:25 51°10.437 2°37.591 7.7434 3.465323 32.160866 -2.871232
2007-02-19 09:48:31 51°10.435 2°37.553 7.7414 3.464701 32.15535 -2.871232
2007-02-19 09:48:36 51°10.433 2°37.521 7.74 3.464701 32.15535 -2.871232
2007-02-19 09:48:41 51°10.432 2°37.49 7.744 3.464287 32.150196 -2.871232
2007-02-19 09:48:46 51°10.43 2°37.459 7.7386 3.463562 32.141843 -2.871232
2007-02-19 09:48:51 51°10.428 2°37.427 7.7376 3.462837 32.134375 -2.871232
2007-02-19 09:48:56 51°10.427 2°37.396 7.7436 3.462216 32.127089 -2.871232
2007-02-19 09:49:01 51°10.425 2°37.364 7.739 3.461802 32.123706 -2.871232
2007-02-19 09:49:06 51°10.424 2°37.333 7.7415 3.461802 32.123706 -2.871232
2007-02-19 09:49:11 51°10.422 2°37.301 7.7455 3.461388 32.120324 -2.871232
2007-02-19 09:49:16 51°10.421 2°37.27 7.7404 3.461077 32.117123 -2.871232
2007-02-19 09:49:21 51°10.419 2°37.238 7.7474 3.460973 32.117825 -2.871232
2007-02-19 09:49:26 51°10.418 2°37.207 7.7474 3.460663 32.114625 -2.871232
2007-02-19 09:49:31 51°10.416 2°37.175 7.7491 3.460352 32.111424 -2.871232
2007-02-19 09:49:36 51°10.415 2°37.144 7.7495 3.460352 32.111424 -2.871232
2007-02-19 09:49:41 51°10.414 2°37.112 7.7544 3.460145 32.107522 -2.871232
2007-02-19 09:49:46 51°10.415 2°37.081 7.7556 3.460145 32.106638 -2.871232
2007-02-19 09:49:51 51°10.416 2°37.05 7.7572 3.459938 32.104505 -2.871232
2007-02-19 09:49:56 51°10.417 2°37.019 7.7575 3.459938 32.102737 -2.871232
2007-02-19 09:50:01 51°10.419 2°36.988 7.7557 3.460145 32.103103 -2.871232
2007-02-19 09:50:06 51°10.422 2°36.958 7.7565 3.460145 32.103103 -2.871232
2007-02-19 09:50:11 51°10.424 2°36.927 7.7577 3.460455 32.103651 -2.871232
2007-02-19 09:50:16 51°10.427 2°36.896 7.7594 3.46087 32.104382 -2.871232
2007-02-19 09:50:21 51°10.431 2°36.866 7.7627 3.461284 32.106881 -2.871232
2007-02-19 09:50:26 51°10.435 2°36.837 7.7609 3.461595 32.109196 -2.871232
2007-02-19 09:50:31 51°10.441 2°36.807 7.7593 3.462009 32.113462 -2.871232
2007-02-19 09:50:36 51°10.447 2°36.779 7.764 3.462009 32.113462 -2.871232
2007-02-19 09:50:41 51°10.453 2°36.751 7.7592 3.461802 32.110445 -2.871232
2007-02-19 09:50:46 51°10.459 2°36.723 7.7584 3.462009 32.109927 -2.871232
2007-02-19 09:50:51 51°10.466 2°36.696 7.7672 3.462423 32.112425 -2.871232
2007-02-19 09:50:56 51°10.473 2°36.669 7.7732 3.462734 32.11474 -2.871232
2007-02-19 09:51:01 51°10.482 2°36.645 7.7733 3.463044 32.117938 -2.871232
2007-02-19 09:51:06 51°10.491 2°36.621 7.7753 3.463044 32.117938 -2.871232
2007-02-19 09:51:11 51°10.502 2°36.599 7.7817 3.463355 32.120253 -2.871232
2007-02-19 09:51:16 51°10.514 2°36.579 7.7813 3.46408 32.128601 -2.871232
2007-02-19 09:51:21 51°10.527 2°36.56 7.7904 3.46439 32.130916 -2.871232
2007-02-19 09:51:26 51°10.541 2°36.543 7.7948 3.464494 32.126678 -2.871232
2007-02-19 09:51:31 51°10.556 2°36.528 7.7909 3.465115 32.128655 -2.871232
2007-02-19 09:51:36 51°10.571 2°36.515 7.7958 3.465115 32.128655 -2.871232
2007-02-19 09:51:41 51°10.587 2°36.505 7.8047 3.466151 32.136663 -2.871232
2007-02-19 09:51:46 51°10.604 2°36.497 7.808 3.467186 32.142903 -2.871232
2007-02-19 09:51:51 51°10.621 2°36.49 7.8026 3.468325 32.150206 -2.871232
2007-02-19 09:51:56 51°10.638 2°36.486 7.828 3.469361 32.156443 -2.871232
2007-02-19 09:52:01 51°10.656 2°36.483 7.8164 3.470293 32.164266 -2.871232
2007-02-19 09:52:06 51°10.673 2°36.484 7.7984 3.470293 32.164266 -2.871232
2007-02-19 09:52:11 51°10.691 2°36.486 7.7925 3.470914 32.167122 -2.871232
2007-02-19 09:52:16 51°10.708 2°36.489 7.8002 3.471742 32.172109 -2.871232
2007-02-19 09:52:21 51°10.725 2°36.493 7.789 3.472674 32.178161 -2.871232
2007-02-19 09:52:26 51°10.742 2°36.498 7.7935 3.472778 32.173921 -2.871232
2007-02-19 09:52:31 51°10.759 2°36.504 7.7929 3.473503 32.177841 -2.871232
2007-02-19 09:52:36 51°10.776 2°36.51 7.7903 3.473503 32.177841 -2.871232